<?xml version="1.0" encoding="UTF-8" standalone="no" ?>
<gpx xmlns="http://www.topografix.com/GPX/1/1" xmlns:xsi="http://www.w3.org/2001/XMLSchema-instance" xsi:schemaLocation="http://www.topografix.com/GPX/1/1 http://www.topografix.com/GPX/1/1/gpx.xsd" version="1.1" creator="VisuGPX - https://www.visugpx.com">
  <metadata>
    <name>VMA 13km/h</name>
  </metadata>
  <trk>
    <name><![CDATA[VMA 13km/h_1]]></name>
    <trkseg>
      <trkpt lat="43.64461" lon="1.37931">
        <ele>150</ele>
        <time>2023-07-08T05:28:51Z</time>
      </trkpt>
      <trkpt lat="43.64461" lon="1.37931">
        <ele>150</ele>
        <time>2023-07-08T05:28:52Z</time>
      </trkpt>
      <trkpt lat="43.64466" lon="1.37936">
        <ele>150</ele>
        <time>2023-07-08T05:28:53Z</time>
      </trkpt>
      <trkpt lat="43.64466" lon="1.37936">
        <ele>150</ele>
        <time>2023-07-08T05:28:54Z</time>
      </trkpt>
      <trkpt lat="43.64469" lon="1.37938">
        <ele>149</ele>
        <time>2023-07-08T05:28:55Z</time>
      </trkpt>
      <trkpt lat="43.64473" lon="1.3794">
        <ele>149</ele>
        <time>2023-07-08T05:28:56Z</time>
      </trkpt>
      <trkpt lat="43.6448" lon="1.37944">
        <ele>149</ele>
        <time>2023-07-08T05:28:57Z</time>
      </trkpt>
      <trkpt lat="43.64484" lon="1.37947">
        <ele>149</ele>
        <time>2023-07-08T05:28:58Z</time>
      </trkpt>
      <trkpt lat="43.64488" lon="1.37949">
        <ele>149</ele>
        <time>2023-07-08T05:28:59Z</time>
      </trkpt>
      <trkpt lat="43.64491" lon="1.37951">
        <ele>149</ele>
        <time>2023-07-08T05:29:00Z</time>
      </trkpt>
      <trkpt lat="43.64494" lon="1.37953">
        <ele>149</ele>
        <time>2023-07-08T05:29:01Z</time>
      </trkpt>
      <trkpt lat="43.64494" lon="1.37953">
        <ele>149</ele>
        <time>2023-07-08T05:29:02Z</time>
      </trkpt>
      <trkpt lat="43.64498" lon="1.37955">
        <ele>149</ele>
        <time>2023-07-08T05:29:03Z</time>
      </trkpt>
      <trkpt lat="43.64505" lon="1.3796">
        <ele>149</ele>
        <time>2023-07-08T05:29:04Z</time>
      </trkpt>
      <trkpt lat="43.64505" lon="1.3796">
        <ele>149</ele>
        <time>2023-07-08T05:29:05Z</time>
      </trkpt>
      <trkpt lat="43.64508" lon="1.37962">
        <ele>149</ele>
        <time>2023-07-08T05:29:06Z</time>
      </trkpt>
      <trkpt lat="43.64514" lon="1.37967">
        <ele>149</ele>
        <time>2023-07-08T05:29:07Z</time>
      </trkpt>
      <trkpt lat="43.64514" lon="1.37967">
        <ele>149</ele>
        <time>2023-07-08T05:29:08Z</time>
      </trkpt>
      <trkpt lat="43.6452" lon="1.37971">
        <ele>149</ele>
        <time>2023-07-08T05:29:09Z</time>
      </trkpt>
      <trkpt lat="43.64524" lon="1.37974">
        <ele>149</ele>
        <time>2023-07-08T05:29:10Z</time>
      </trkpt>
      <trkpt lat="43.64527" lon="1.37976">
        <ele>149</ele>
        <time>2023-07-08T05:29:11Z</time>
      </trkpt>
      <trkpt lat="43.64527" lon="1.37976">
        <ele>149</ele>
        <time>2023-07-08T05:29:12Z</time>
      </trkpt>
      <trkpt lat="43.64534" lon="1.37979">
        <ele>149</ele>
        <time>2023-07-08T05:29:13Z</time>
      </trkpt>
      <trkpt lat="43.64537" lon="1.37979">
        <ele>149</ele>
        <time>2023-07-08T05:29:14Z</time>
      </trkpt>
      <trkpt lat="43.64541" lon="1.3798">
        <ele>149</ele>
        <time>2023-07-08T05:29:15Z</time>
      </trkpt>
      <trkpt lat="43.64543" lon="1.37979">
        <ele>149</ele>
        <time>2023-07-08T05:29:16Z</time>
      </trkpt>
      <trkpt lat="43.64546" lon="1.37979">
        <ele>149</ele>
        <time>2023-07-08T05:29:17Z</time>
      </trkpt>
      <trkpt lat="43.64546" lon="1.37979">
        <ele>149</ele>
        <time>2023-07-08T05:29:18Z</time>
      </trkpt>
      <trkpt lat="43.64549" lon="1.37978">
        <ele>149</ele>
        <time>2023-07-08T05:29:19Z</time>
      </trkpt>
      <trkpt lat="43.64552" lon="1.37977">
        <ele>149</ele>
        <time>2023-07-08T05:29:20Z</time>
      </trkpt>
      <trkpt lat="43.64555" lon="1.37975">
        <ele>149</ele>
        <time>2023-07-08T05:29:21Z</time>
      </trkpt>
      <trkpt lat="43.64558" lon="1.37974">
        <ele>149</ele>
        <time>2023-07-08T05:29:22Z</time>
      </trkpt>
      <trkpt lat="43.6456" lon="1.37971">
        <ele>149</ele>
        <time>2023-07-08T05:29:23Z</time>
      </trkpt>
      <trkpt lat="43.64562" lon="1.37968">
        <ele>149</ele>
        <time>2023-07-08T05:29:24Z</time>
      </trkpt>
      <trkpt lat="43.64566" lon="1.37961">
        <ele>149</ele>
        <time>2023-07-08T05:29:25Z</time>
      </trkpt>
      <trkpt lat="43.64568" lon="1.37957">
        <ele>149</ele>
        <time>2023-07-08T05:29:26Z</time>
      </trkpt>
      <trkpt lat="43.64569" lon="1.37953">
        <ele>149</ele>
        <time>2023-07-08T05:29:27Z</time>
      </trkpt>
      <trkpt lat="43.6457" lon="1.37949">
        <ele>149</ele>
        <time>2023-07-08T05:29:28Z</time>
      </trkpt>
      <trkpt lat="43.6457" lon="1.37945">
        <ele>149</ele>
        <time>2023-07-08T05:29:29Z</time>
      </trkpt>
      <trkpt lat="43.6457" lon="1.37945">
        <ele>149</ele>
        <time>2023-07-08T05:29:30Z</time>
      </trkpt>
      <trkpt lat="43.64569" lon="1.37936">
        <ele>149</ele>
        <time>2023-07-08T05:29:31Z</time>
      </trkpt>
      <trkpt lat="43.64568" lon="1.37932">
        <ele>149</ele>
        <time>2023-07-08T05:29:32Z</time>
      </trkpt>
      <trkpt lat="43.64568" lon="1.37932">
        <ele>149</ele>
        <time>2023-07-08T05:29:33Z</time>
      </trkpt>
      <trkpt lat="43.64564" lon="1.37924">
        <ele>149</ele>
        <time>2023-07-08T05:29:34Z</time>
      </trkpt>
      <trkpt lat="43.64564" lon="1.37924">
        <ele>149</ele>
        <time>2023-07-08T05:29:35Z</time>
      </trkpt>
      <trkpt lat="43.64562" lon="1.37919">
        <ele>149</ele>
        <time>2023-07-08T05:29:36Z</time>
      </trkpt>
      <trkpt lat="43.64559" lon="1.37915">
        <ele>149</ele>
        <time>2023-07-08T05:29:37Z</time>
      </trkpt>
      <trkpt lat="43.64556" lon="1.37912">
        <ele>149</ele>
        <time>2023-07-08T05:29:38Z</time>
      </trkpt>
      <trkpt lat="43.64551" lon="1.37906">
        <ele>149</ele>
        <time>2023-07-08T05:29:39Z</time>
      </trkpt>
      <trkpt lat="43.64551" lon="1.37906">
        <ele>149</ele>
        <time>2023-07-08T05:29:40Z</time>
      </trkpt>
      <trkpt lat="43.64548" lon="1.37904">
        <ele>149</ele>
        <time>2023-07-08T05:29:41Z</time>
      </trkpt>
      <trkpt lat="43.64545" lon="1.37902">
        <ele>149</ele>
        <time>2023-07-08T05:29:42Z</time>
      </trkpt>
      <trkpt lat="43.64542" lon="1.379">
        <ele>149</ele>
        <time>2023-07-08T05:29:43Z</time>
      </trkpt>
      <trkpt lat="43.64537" lon="1.37896">
        <ele>149</ele>
        <time>2023-07-08T05:29:44Z</time>
      </trkpt>
      <trkpt lat="43.64534" lon="1.37894">
        <ele>149</ele>
        <time>2023-07-08T05:29:45Z</time>
      </trkpt>
      <trkpt lat="43.64531" lon="1.37893">
        <ele>149</ele>
        <time>2023-07-08T05:29:46Z</time>
      </trkpt>
      <trkpt lat="43.64531" lon="1.37893">
        <ele>149</ele>
        <time>2023-07-08T05:29:47Z</time>
      </trkpt>
      <trkpt lat="43.64525" lon="1.37889">
        <ele>149</ele>
        <time>2023-07-08T05:29:48Z</time>
      </trkpt>
      <trkpt lat="43.64522" lon="1.37887">
        <ele>149</ele>
        <time>2023-07-08T05:29:49Z</time>
      </trkpt>
      <trkpt lat="43.64518" lon="1.37885">
        <ele>149</ele>
        <time>2023-07-08T05:29:50Z</time>
      </trkpt>
      <trkpt lat="43.64518" lon="1.37885">
        <ele>149</ele>
        <time>2023-07-08T05:29:51Z</time>
      </trkpt>
      <trkpt lat="43.64512" lon="1.37881">
        <ele>149</ele>
        <time>2023-07-08T05:29:52Z</time>
      </trkpt>
      <trkpt lat="43.64509" lon="1.3788">
        <ele>149</ele>
        <time>2023-07-08T05:29:53Z</time>
      </trkpt>
      <trkpt lat="43.64507" lon="1.37877">
        <ele>149</ele>
        <time>2023-07-08T05:29:54Z</time>
      </trkpt>
      <trkpt lat="43.64504" lon="1.37875">
        <ele>149</ele>
        <time>2023-07-08T05:29:55Z</time>
      </trkpt>
      <trkpt lat="43.64504" lon="1.37875">
        <ele>149</ele>
        <time>2023-07-08T05:29:56Z</time>
      </trkpt>
      <trkpt lat="43.64501" lon="1.37873">
        <ele>149</ele>
        <time>2023-07-08T05:29:57Z</time>
      </trkpt>
      <trkpt lat="43.64498" lon="1.37871">
        <ele>149</ele>
        <time>2023-07-08T05:29:58Z</time>
      </trkpt>
      <trkpt lat="43.64495" lon="1.37869">
        <ele>149</ele>
        <time>2023-07-08T05:29:59Z</time>
      </trkpt>
      <trkpt lat="43.64493" lon="1.37868">
        <ele>149</ele>
        <time>2023-07-08T05:30:00Z</time>
      </trkpt>
      <trkpt lat="43.64487" lon="1.37867">
        <ele>149</ele>
        <time>2023-07-08T05:30:01Z</time>
      </trkpt>
      <trkpt lat="43.64487" lon="1.37867">
        <ele>149</ele>
        <time>2023-07-08T05:30:02Z</time>
      </trkpt>
      <trkpt lat="43.64484" lon="1.37867">
        <ele>149</ele>
        <time>2023-07-08T05:30:03Z</time>
      </trkpt>
      <trkpt lat="43.64481" lon="1.37868">
        <ele>149</ele>
        <time>2023-07-08T05:30:04Z</time>
      </trkpt>
      <trkpt lat="43.64475" lon="1.37871">
        <ele>149</ele>
        <time>2023-07-08T05:30:05Z</time>
      </trkpt>
      <trkpt lat="43.64475" lon="1.37871">
        <ele>149</ele>
        <time>2023-07-08T05:30:06Z</time>
      </trkpt>
      <trkpt lat="43.64469" lon="1.37877">
        <ele>149</ele>
        <time>2023-07-08T05:30:07Z</time>
      </trkpt>
      <trkpt lat="43.64467" lon="1.37881">
        <ele>149</ele>
        <time>2023-07-08T05:30:08Z</time>
      </trkpt>
      <trkpt lat="43.64465" lon="1.37884">
        <ele>149</ele>
        <time>2023-07-08T05:30:09Z</time>
      </trkpt>
      <trkpt lat="43.64464" lon="1.37888">
        <ele>149</ele>
        <time>2023-07-08T05:30:10Z</time>
      </trkpt>
      <trkpt lat="43.64464" lon="1.37888">
        <ele>149</ele>
        <time>2023-07-08T05:30:11Z</time>
      </trkpt>
      <trkpt lat="43.64462" lon="1.37897">
        <ele>149</ele>
        <time>2023-07-08T05:30:12Z</time>
      </trkpt>
      <trkpt lat="43.64462" lon="1.37897">
        <ele>149</ele>
        <time>2023-07-08T05:30:13Z</time>
      </trkpt>
      <trkpt lat="43.64461" lon="1.37902">
        <ele>149</ele>
        <time>2023-07-08T05:30:14Z</time>
      </trkpt>
      <trkpt lat="43.6446" lon="1.37907">
        <ele>149</ele>
        <time>2023-07-08T05:30:15Z</time>
      </trkpt>
      <trkpt lat="43.6446" lon="1.37916">
        <ele>149</ele>
        <time>2023-07-08T05:30:16Z</time>
      </trkpt>
      <trkpt lat="43.6446" lon="1.37916">
        <ele>149</ele>
        <time>2023-07-08T05:30:17Z</time>
      </trkpt>
      <trkpt lat="43.64461" lon="1.37921">
        <ele>149</ele>
        <time>2023-07-08T05:30:18Z</time>
      </trkpt>
      <trkpt lat="43.64463" lon="1.37927">
        <ele>149</ele>
        <time>2023-07-08T05:30:19Z</time>
      </trkpt>
      <trkpt lat="43.64464" lon="1.37932">
        <ele>149</ele>
        <time>2023-07-08T05:30:20Z</time>
      </trkpt>
      <trkpt lat="43.64464" lon="1.37932">
        <ele>148</ele>
        <time>2023-07-08T05:30:21Z</time>
      </trkpt>
      <trkpt lat="43.64469" lon="1.37938">
        <ele>148</ele>
        <time>2023-07-08T05:30:22Z</time>
      </trkpt>
      <trkpt lat="43.64471" lon="1.37941">
        <ele>148</ele>
        <time>2023-07-08T05:30:23Z</time>
      </trkpt>
      <trkpt lat="43.64473" lon="1.37943">
        <ele>149</ele>
        <time>2023-07-08T05:30:24Z</time>
      </trkpt>
      <trkpt lat="43.64477" lon="1.37946">
        <ele>149</ele>
        <time>2023-07-08T05:30:25Z</time>
      </trkpt>
      <trkpt lat="43.64479" lon="1.37947">
        <ele>149</ele>
        <time>2023-07-08T05:30:26Z</time>
      </trkpt>
      <trkpt lat="43.64479" lon="1.37947">
        <ele>149</ele>
        <time>2023-07-08T05:30:27Z</time>
      </trkpt>
      <trkpt lat="43.64483" lon="1.37949">
        <ele>149</ele>
        <time>2023-07-08T05:30:28Z</time>
      </trkpt>
      <trkpt lat="43.64486" lon="1.37951">
        <ele>149</ele>
        <time>2023-07-08T05:30:29Z</time>
      </trkpt>
      <trkpt lat="43.64489" lon="1.37952">
        <ele>149</ele>
        <time>2023-07-08T05:30:30Z</time>
      </trkpt>
      <trkpt lat="43.64495" lon="1.37956">
        <ele>149</ele>
        <time>2023-07-08T05:30:31Z</time>
      </trkpt>
      <trkpt lat="43.64495" lon="1.37956">
        <ele>149</ele>
        <time>2023-07-08T05:30:32Z</time>
      </trkpt>
      <trkpt lat="43.64501" lon="1.37959">
        <ele>149</ele>
        <time>2023-07-08T05:30:33Z</time>
      </trkpt>
      <trkpt lat="43.64504" lon="1.37961">
        <ele>149</ele>
        <time>2023-07-08T05:30:34Z</time>
      </trkpt>
      <trkpt lat="43.64507" lon="1.37962">
        <ele>149</ele>
        <time>2023-07-08T05:30:35Z</time>
      </trkpt>
      <trkpt lat="43.64509" lon="1.37964">
        <ele>149</ele>
        <time>2023-07-08T05:30:36Z</time>
      </trkpt>
      <trkpt lat="43.64509" lon="1.37964">
        <ele>149</ele>
        <time>2023-07-08T05:30:37Z</time>
      </trkpt>
      <trkpt lat="43.64515" lon="1.37968">
        <ele>148</ele>
        <time>2023-07-08T05:30:38Z</time>
      </trkpt>
      <trkpt lat="43.64515" lon="1.37968">
        <ele>148</ele>
        <time>2023-07-08T05:30:39Z</time>
      </trkpt>
      <trkpt lat="43.64518" lon="1.37969">
        <ele>148</ele>
        <time>2023-07-08T05:30:40Z</time>
      </trkpt>
      <trkpt lat="43.64524" lon="1.37972">
        <ele>148</ele>
        <time>2023-07-08T05:30:41Z</time>
      </trkpt>
      <trkpt lat="43.64524" lon="1.37972">
        <ele>149</ele>
        <time>2023-07-08T05:30:42Z</time>
      </trkpt>
      <trkpt lat="43.6453" lon="1.37975">
        <ele>149</ele>
        <time>2023-07-08T05:30:43Z</time>
      </trkpt>
      <trkpt lat="43.64533" lon="1.37976">
        <ele>149</ele>
        <time>2023-07-08T05:30:44Z</time>
      </trkpt>
      <trkpt lat="43.64536" lon="1.37977">
        <ele>149</ele>
        <time>2023-07-08T05:30:45Z</time>
      </trkpt>
      <trkpt lat="43.64539" lon="1.37978">
        <ele>149</ele>
        <time>2023-07-08T05:30:46Z</time>
      </trkpt>
      <trkpt lat="43.64539" lon="1.37978">
        <ele>149</ele>
        <time>2023-07-08T05:30:47Z</time>
      </trkpt>
      <trkpt lat="43.64542" lon="1.37978">
        <ele>149</ele>
        <time>2023-07-08T05:30:48Z</time>
      </trkpt>
      <trkpt lat="43.64547" lon="1.37976">
        <ele>149</ele>
        <time>2023-07-08T05:30:49Z</time>
      </trkpt>
      <trkpt lat="43.6455" lon="1.37975">
        <ele>148</ele>
        <time>2023-07-08T05:30:50Z</time>
      </trkpt>
      <trkpt lat="43.64552" lon="1.37974">
        <ele>148</ele>
        <time>2023-07-08T05:30:51Z</time>
      </trkpt>
      <trkpt lat="43.64552" lon="1.37974">
        <ele>148</ele>
        <time>2023-07-08T05:30:52Z</time>
      </trkpt>
      <trkpt lat="43.64555" lon="1.37972">
        <ele>148</ele>
        <time>2023-07-08T05:30:53Z</time>
      </trkpt>
      <trkpt lat="43.64557" lon="1.3797">
        <ele>149</ele>
        <time>2023-07-08T05:30:54Z</time>
      </trkpt>
      <trkpt lat="43.64562" lon="1.37967">
        <ele>149</ele>
        <time>2023-07-08T05:30:55Z</time>
      </trkpt>
      <trkpt lat="43.64564" lon="1.37964">
        <ele>149</ele>
        <time>2023-07-08T05:30:56Z</time>
      </trkpt>
      <trkpt lat="43.64565" lon="1.3796">
        <ele>149</ele>
        <time>2023-07-08T05:30:57Z</time>
      </trkpt>
      <trkpt lat="43.64565" lon="1.3796">
        <ele>149</ele>
        <time>2023-07-08T05:30:58Z</time>
      </trkpt>
      <trkpt lat="43.64566" lon="1.37956">
        <ele>149</ele>
        <time>2023-07-08T05:30:59Z</time>
      </trkpt>
      <trkpt lat="43.64567" lon="1.37952">
        <ele>149</ele>
        <time>2023-07-08T05:31:00Z</time>
      </trkpt>
      <trkpt lat="43.64568" lon="1.37949">
        <ele>149</ele>
        <time>2023-07-08T05:31:01Z</time>
      </trkpt>
      <trkpt lat="43.64568" lon="1.37943">
        <ele>149</ele>
        <time>2023-07-08T05:31:02Z</time>
      </trkpt>
      <trkpt lat="43.64568" lon="1.37937">
        <ele>149</ele>
        <time>2023-07-08T05:31:03Z</time>
      </trkpt>
      <trkpt lat="43.64567" lon="1.37932">
        <ele>149</ele>
        <time>2023-07-08T05:31:04Z</time>
      </trkpt>
      <trkpt lat="43.64566" lon="1.37927">
        <ele>149</ele>
        <time>2023-07-08T05:31:05Z</time>
      </trkpt>
      <trkpt lat="43.64566" lon="1.37927">
        <ele>149</ele>
        <time>2023-07-08T05:31:06Z</time>
      </trkpt>
      <trkpt lat="43.64564" lon="1.37924">
        <ele>148</ele>
        <time>2023-07-08T05:31:07Z</time>
      </trkpt>
      <trkpt lat="43.64562" lon="1.3792">
        <ele>148</ele>
        <time>2023-07-08T05:31:08Z</time>
      </trkpt>
      <trkpt lat="43.6456" lon="1.37917">
        <ele>149</ele>
        <time>2023-07-08T05:31:09Z</time>
      </trkpt>
      <trkpt lat="43.64558" lon="1.37914">
        <ele>149</ele>
        <time>2023-07-08T05:31:10Z</time>
      </trkpt>
      <trkpt lat="43.64553" lon="1.37909">
        <ele>149</ele>
        <time>2023-07-08T05:31:11Z</time>
      </trkpt>
      <trkpt lat="43.6455" lon="1.37907">
        <ele>149</ele>
        <time>2023-07-08T05:31:12Z</time>
      </trkpt>
      <trkpt lat="43.6455" lon="1.37907">
        <ele>149</ele>
        <time>2023-07-08T05:31:13Z</time>
      </trkpt>
      <trkpt lat="43.64548" lon="1.37904">
        <ele>149</ele>
        <time>2023-07-08T05:31:14Z</time>
      </trkpt>
      <trkpt lat="43.64545" lon="1.37902">
        <ele>149</ele>
        <time>2023-07-08T05:31:15Z</time>
      </trkpt>
      <trkpt lat="43.64539" lon="1.37898">
        <ele>149</ele>
        <time>2023-07-08T05:31:16Z</time>
      </trkpt>
      <trkpt lat="43.64539" lon="1.37898">
        <ele>149</ele>
        <time>2023-07-08T05:31:17Z</time>
      </trkpt>
      <trkpt lat="43.64537" lon="1.37896">
        <ele>149</ele>
        <time>2023-07-08T05:31:18Z</time>
      </trkpt>
      <trkpt lat="43.64534" lon="1.37894">
        <ele>149</ele>
        <time>2023-07-08T05:31:19Z</time>
      </trkpt>
      <trkpt lat="43.64531" lon="1.37892">
        <ele>149</ele>
        <time>2023-07-08T05:31:20Z</time>
      </trkpt>
      <trkpt lat="43.64526" lon="1.37888">
        <ele>148</ele>
        <time>2023-07-08T05:31:21Z</time>
      </trkpt>
      <trkpt lat="43.64524" lon="1.37886">
        <ele>148</ele>
        <time>2023-07-08T05:31:22Z</time>
      </trkpt>
      <trkpt lat="43.64521" lon="1.37884">
        <ele>148</ele>
        <time>2023-07-08T05:31:23Z</time>
      </trkpt>
      <trkpt lat="43.64518" lon="1.37882">
        <ele>148</ele>
        <time>2023-07-08T05:31:24Z</time>
      </trkpt>
      <trkpt lat="43.64516" lon="1.3788">
        <ele>148</ele>
        <time>2023-07-08T05:31:25Z</time>
      </trkpt>
      <trkpt lat="43.64516" lon="1.3788">
        <ele>148</ele>
        <time>2023-07-08T05:31:26Z</time>
      </trkpt>
      <trkpt lat="43.64513" lon="1.37878">
        <ele>148</ele>
        <time>2023-07-08T05:31:27Z</time>
      </trkpt>
      <trkpt lat="43.64507" lon="1.37873">
        <ele>148</ele>
        <time>2023-07-08T05:31:28Z</time>
      </trkpt>
      <trkpt lat="43.64505" lon="1.37871">
        <ele>148</ele>
        <time>2023-07-08T05:31:29Z</time>
      </trkpt>
      <trkpt lat="43.64505" lon="1.37871">
        <ele>148</ele>
        <time>2023-07-08T05:31:30Z</time>
      </trkpt>
      <trkpt lat="43.64499" lon="1.37868">
        <ele>148</ele>
        <time>2023-07-08T05:31:31Z</time>
      </trkpt>
      <trkpt lat="43.64496" lon="1.37867">
        <ele>148</ele>
        <time>2023-07-08T05:31:32Z</time>
      </trkpt>
      <trkpt lat="43.64496" lon="1.37867">
        <ele>148</ele>
        <time>2023-07-08T05:31:33Z</time>
      </trkpt>
      <trkpt lat="43.6449" lon="1.37866">
        <ele>148</ele>
        <time>2023-07-08T05:31:34Z</time>
      </trkpt>
      <trkpt lat="43.6449" lon="1.37866">
        <ele>148</ele>
        <time>2023-07-08T05:31:35Z</time>
      </trkpt>
      <trkpt lat="43.64487" lon="1.37866">
        <ele>148</ele>
        <time>2023-07-08T05:31:36Z</time>
      </trkpt>
      <trkpt lat="43.64484" lon="1.37866">
        <ele>148</ele>
        <time>2023-07-08T05:31:37Z</time>
      </trkpt>
      <trkpt lat="43.64478" lon="1.37868">
        <ele>148</ele>
        <time>2023-07-08T05:31:38Z</time>
      </trkpt>
      <trkpt lat="43.64475" lon="1.37871">
        <ele>149</ele>
        <time>2023-07-08T05:31:39Z</time>
      </trkpt>
      <trkpt lat="43.64475" lon="1.37871">
        <ele>149</ele>
        <time>2023-07-08T05:31:40Z</time>
      </trkpt>
      <trkpt lat="43.64472" lon="1.37874">
        <ele>149</ele>
        <time>2023-07-08T05:31:41Z</time>
      </trkpt>
      <trkpt lat="43.64469" lon="1.37877">
        <ele>149</ele>
        <time>2023-07-08T05:31:42Z</time>
      </trkpt>
      <trkpt lat="43.64467" lon="1.37881">
        <ele>149</ele>
        <time>2023-07-08T05:31:43Z</time>
      </trkpt>
      <trkpt lat="43.64464" lon="1.37884">
        <ele>149</ele>
        <time>2023-07-08T05:31:44Z</time>
      </trkpt>
      <trkpt lat="43.64462" lon="1.37889">
        <ele>149</ele>
        <time>2023-07-08T05:31:45Z</time>
      </trkpt>
      <trkpt lat="43.64461" lon="1.37892">
        <ele>149</ele>
        <time>2023-07-08T05:31:46Z</time>
      </trkpt>
      <trkpt lat="43.6446" lon="1.37897">
        <ele>149</ele>
        <time>2023-07-08T05:31:47Z</time>
      </trkpt>
      <trkpt lat="43.64457" lon="1.37906">
        <ele>149</ele>
        <time>2023-07-08T05:31:48Z</time>
      </trkpt>
      <trkpt lat="43.64457" lon="1.37906">
        <ele>149</ele>
        <time>2023-07-08T05:31:49Z</time>
      </trkpt>
      <trkpt lat="43.64457" lon="1.37911">
        <ele>148</ele>
        <time>2023-07-08T05:31:50Z</time>
      </trkpt>
      <trkpt lat="43.64458" lon="1.37916">
        <ele>148</ele>
        <time>2023-07-08T05:31:51Z</time>
      </trkpt>
      <trkpt lat="43.64458" lon="1.3792">
        <ele>148</ele>
        <time>2023-07-08T05:31:52Z</time>
      </trkpt>
      <trkpt lat="43.64462" lon="1.37928">
        <ele>149</ele>
        <time>2023-07-08T05:31:53Z</time>
      </trkpt>
      <trkpt lat="43.64464" lon="1.37932">
        <ele>149</ele>
        <time>2023-07-08T05:31:54Z</time>
      </trkpt>
      <trkpt lat="43.64464" lon="1.37932">
        <ele>149</ele>
        <time>2023-07-08T05:31:55Z</time>
      </trkpt>
      <trkpt lat="43.64466" lon="1.37935">
        <ele>149</ele>
        <time>2023-07-08T05:31:56Z</time>
      </trkpt>
      <trkpt lat="43.64468" lon="1.37938">
        <ele>149</ele>
        <time>2023-07-08T05:31:57Z</time>
      </trkpt>
      <trkpt lat="43.64473" lon="1.37943">
        <ele>149</ele>
        <time>2023-07-08T05:31:58Z</time>
      </trkpt>
      <trkpt lat="43.64473" lon="1.37943">
        <ele>149</ele>
        <time>2023-07-08T05:31:59Z</time>
      </trkpt>
      <trkpt lat="43.64475" lon="1.37944">
        <ele>148</ele>
        <time>2023-07-08T05:32:00Z</time>
      </trkpt>
      <trkpt lat="43.64482" lon="1.37948">
        <ele>148</ele>
        <time>2023-07-08T05:32:01Z</time>
      </trkpt>
      <trkpt lat="43.64485" lon="1.3795">
        <ele>148</ele>
        <time>2023-07-08T05:32:02Z</time>
      </trkpt>
      <trkpt lat="43.64485" lon="1.3795">
        <ele>148</ele>
        <time>2023-07-08T05:32:03Z</time>
      </trkpt>
      <trkpt lat="43.64489" lon="1.37952">
        <ele>148</ele>
        <time>2023-07-08T05:32:04Z</time>
      </trkpt>
      <trkpt lat="43.64492" lon="1.37954">
        <ele>148</ele>
        <time>2023-07-08T05:32:05Z</time>
      </trkpt>
      <trkpt lat="43.64494" lon="1.37955">
        <ele>148</ele>
        <time>2023-07-08T05:32:06Z</time>
      </trkpt>
      <trkpt lat="43.64497" lon="1.37957">
        <ele>148</ele>
        <time>2023-07-08T05:32:07Z</time>
      </trkpt>
      <trkpt lat="43.645" lon="1.37958">
        <ele>148</ele>
        <time>2023-07-08T05:32:08Z</time>
      </trkpt>
      <trkpt lat="43.64503" lon="1.3796">
        <ele>148</ele>
        <time>2023-07-08T05:32:09Z</time>
      </trkpt>
      <trkpt lat="43.64509" lon="1.37964">
        <ele>148</ele>
        <time>2023-07-08T05:32:10Z</time>
      </trkpt>
      <trkpt lat="43.64509" lon="1.37964">
        <ele>148</ele>
        <time>2023-07-08T05:32:11Z</time>
      </trkpt>
      <trkpt lat="43.64512" lon="1.37966">
        <ele>148</ele>
        <time>2023-07-08T05:32:12Z</time>
      </trkpt>
      <trkpt lat="43.64515" lon="1.37968">
        <ele>148</ele>
        <time>2023-07-08T05:32:13Z</time>
      </trkpt>
      <trkpt lat="43.64517" lon="1.3797">
        <ele>148</ele>
        <time>2023-07-08T05:32:14Z</time>
      </trkpt>
      <trkpt lat="43.64523" lon="1.37972">
        <ele>148</ele>
        <time>2023-07-08T05:32:15Z</time>
      </trkpt>
      <trkpt lat="43.64526" lon="1.37974">
        <ele>148</ele>
        <time>2023-07-08T05:32:16Z</time>
      </trkpt>
      <trkpt lat="43.64526" lon="1.37974">
        <ele>148</ele>
        <time>2023-07-08T05:32:17Z</time>
      </trkpt>
      <trkpt lat="43.64528" lon="1.37975">
        <ele>148</ele>
        <time>2023-07-08T05:32:18Z</time>
      </trkpt>
      <trkpt lat="43.64531" lon="1.37977">
        <ele>148</ele>
        <time>2023-07-08T05:32:19Z</time>
      </trkpt>
      <trkpt lat="43.64537" lon="1.37979">
        <ele>148</ele>
        <time>2023-07-08T05:32:20Z</time>
      </trkpt>
      <trkpt lat="43.6454" lon="1.37979">
        <ele>148</ele>
        <time>2023-07-08T05:32:21Z</time>
      </trkpt>
      <trkpt lat="43.6454" lon="1.37979">
        <ele>148</ele>
        <time>2023-07-08T05:32:22Z</time>
      </trkpt>
      <trkpt lat="43.64543" lon="1.37979">
        <ele>149</ele>
        <time>2023-07-08T05:32:23Z</time>
      </trkpt>
      <trkpt lat="43.64546" lon="1.37979">
        <ele>149</ele>
        <time>2023-07-08T05:32:24Z</time>
      </trkpt>
      <trkpt lat="43.64548" lon="1.37978">
        <ele>149</ele>
        <time>2023-07-08T05:32:25Z</time>
      </trkpt>
      <trkpt lat="43.6455" lon="1.37978">
        <ele>149</ele>
        <time>2023-07-08T05:32:26Z</time>
      </trkpt>
      <trkpt lat="43.64556" lon="1.37976">
        <ele>149</ele>
        <time>2023-07-08T05:32:27Z</time>
      </trkpt>
      <trkpt lat="43.64558" lon="1.37973">
        <ele>149</ele>
        <time>2023-07-08T05:32:28Z</time>
      </trkpt>
      <trkpt lat="43.64558" lon="1.37973">
        <ele>149</ele>
        <time>2023-07-08T05:32:29Z</time>
      </trkpt>
      <trkpt lat="43.6456" lon="1.3797">
        <ele>149</ele>
        <time>2023-07-08T05:32:30Z</time>
      </trkpt>
      <trkpt lat="43.64562" lon="1.37966">
        <ele>148</ele>
        <time>2023-07-08T05:32:31Z</time>
      </trkpt>
      <trkpt lat="43.64567" lon="1.37958">
        <ele>148</ele>
        <time>2023-07-08T05:32:32Z</time>
      </trkpt>
      <trkpt lat="43.64568" lon="1.37955">
        <ele>148</ele>
        <time>2023-07-08T05:32:33Z</time>
      </trkpt>
      <trkpt lat="43.64568" lon="1.37955">
        <ele>148</ele>
        <time>2023-07-08T05:32:34Z</time>
      </trkpt>
      <trkpt lat="43.6457" lon="1.37947">
        <ele>148</ele>
        <time>2023-07-08T05:32:35Z</time>
      </trkpt>
      <trkpt lat="43.6457" lon="1.37947">
        <ele>148</ele>
        <time>2023-07-08T05:32:36Z</time>
      </trkpt>
      <trkpt lat="43.6457" lon="1.37943">
        <ele>148</ele>
        <time>2023-07-08T05:32:37Z</time>
      </trkpt>
      <trkpt lat="43.64569" lon="1.37938">
        <ele>148</ele>
        <time>2023-07-08T05:32:38Z</time>
      </trkpt>
      <trkpt lat="43.64567" lon="1.3793">
        <ele>148</ele>
        <time>2023-07-08T05:32:39Z</time>
      </trkpt>
      <trkpt lat="43.64567" lon="1.3793">
        <ele>148</ele>
        <time>2023-07-08T05:32:40Z</time>
      </trkpt>
      <trkpt lat="43.64565" lon="1.37926">
        <ele>148</ele>
        <time>2023-07-08T05:32:41Z</time>
      </trkpt>
      <trkpt lat="43.64563" lon="1.37923">
        <ele>148</ele>
        <time>2023-07-08T05:32:42Z</time>
      </trkpt>
      <trkpt lat="43.6456" lon="1.37919">
        <ele>148</ele>
        <time>2023-07-08T05:32:43Z</time>
      </trkpt>
      <trkpt lat="43.64558" lon="1.37917">
        <ele>148</ele>
        <time>2023-07-08T05:32:44Z</time>
      </trkpt>
      <trkpt lat="43.64553" lon="1.37911">
        <ele>148</ele>
        <time>2023-07-08T05:32:45Z</time>
      </trkpt>
      <trkpt lat="43.6455" lon="1.37908">
        <ele>148</ele>
        <time>2023-07-08T05:32:46Z</time>
      </trkpt>
      <trkpt lat="43.6455" lon="1.37908">
        <ele>148</ele>
        <time>2023-07-08T05:32:47Z</time>
      </trkpt>
      <trkpt lat="43.64545" lon="1.37904">
        <ele>148</ele>
        <time>2023-07-08T05:32:48Z</time>
      </trkpt>
      <trkpt lat="43.64543" lon="1.37901">
        <ele>148</ele>
        <time>2023-07-08T05:32:49Z</time>
      </trkpt>
      <trkpt lat="43.64543" lon="1.37901">
        <ele>148</ele>
        <time>2023-07-08T05:32:50Z</time>
      </trkpt>
      <trkpt lat="43.6454" lon="1.37899">
        <ele>148</ele>
        <time>2023-07-08T05:32:51Z</time>
      </trkpt>
      <trkpt lat="43.64537" lon="1.37898">
        <ele>149</ele>
        <time>2023-07-08T05:32:52Z</time>
      </trkpt>
      <trkpt lat="43.64532" lon="1.37894">
        <ele>149</ele>
        <time>2023-07-08T05:32:53Z</time>
      </trkpt>
      <trkpt lat="43.64529" lon="1.37892">
        <ele>149</ele>
        <time>2023-07-08T05:32:54Z</time>
      </trkpt>
      <trkpt lat="43.64529" lon="1.37892">
        <ele>148</ele>
        <time>2023-07-08T05:32:55Z</time>
      </trkpt>
      <trkpt lat="43.64524" lon="1.37888">
        <ele>148</ele>
        <time>2023-07-08T05:32:56Z</time>
      </trkpt>
      <trkpt lat="43.64521" lon="1.37886">
        <ele>148</ele>
        <time>2023-07-08T05:32:57Z</time>
      </trkpt>
      <trkpt lat="43.64518" lon="1.37884">
        <ele>148</ele>
        <time>2023-07-08T05:32:58Z</time>
      </trkpt>
      <trkpt lat="43.64518" lon="1.37884">
        <ele>148</ele>
        <time>2023-07-08T05:32:59Z</time>
      </trkpt>
      <trkpt lat="43.64515" lon="1.37882">
        <ele>148</ele>
        <time>2023-07-08T05:33:00Z</time>
      </trkpt>
      <trkpt lat="43.64513" lon="1.3788">
        <ele>148</ele>
        <time>2023-07-08T05:33:01Z</time>
      </trkpt>
      <trkpt lat="43.6451" lon="1.37878">
        <ele>148</ele>
        <time>2023-07-08T05:33:02Z</time>
      </trkpt>
      <trkpt lat="43.64507" lon="1.37877">
        <ele>148</ele>
        <time>2023-07-08T05:33:03Z</time>
      </trkpt>
      <trkpt lat="43.64502" lon="1.37873">
        <ele>148</ele>
        <time>2023-07-08T05:33:04Z</time>
      </trkpt>
      <trkpt lat="43.64499" lon="1.37872">
        <ele>148</ele>
        <time>2023-07-08T05:33:05Z</time>
      </trkpt>
      <trkpt lat="43.64496" lon="1.37871">
        <ele>149</ele>
        <time>2023-07-08T05:33:06Z</time>
      </trkpt>
      <trkpt lat="43.64493" lon="1.3787">
        <ele>149</ele>
        <time>2023-07-08T05:33:07Z</time>
      </trkpt>
      <trkpt lat="43.64493" lon="1.3787">
        <ele>149</ele>
        <time>2023-07-08T05:33:08Z</time>
      </trkpt>
      <trkpt lat="43.6449" lon="1.37869">
        <ele>149</ele>
        <time>2023-07-08T05:33:09Z</time>
      </trkpt>
      <trkpt lat="43.64484" lon="1.37869">
        <ele>149</ele>
        <time>2023-07-08T05:33:10Z</time>
      </trkpt>
      <trkpt lat="43.64481" lon="1.3787">
        <ele>149</ele>
        <time>2023-07-08T05:33:11Z</time>
      </trkpt>
      <trkpt lat="43.64481" lon="1.3787">
        <ele>149</ele>
        <time>2023-07-08T05:33:12Z</time>
      </trkpt>
      <trkpt lat="43.64479" lon="1.37871">
        <ele>149</ele>
        <time>2023-07-08T05:33:13Z</time>
      </trkpt>
      <trkpt lat="43.64476" lon="1.37872">
        <ele>149</ele>
        <time>2023-07-08T05:33:14Z</time>
      </trkpt>
      <trkpt lat="43.64474" lon="1.37874">
        <ele>149</ele>
        <time>2023-07-08T05:33:15Z</time>
      </trkpt>
      <trkpt lat="43.64473" lon="1.37876">
        <ele>149</ele>
        <time>2023-07-08T05:33:16Z</time>
      </trkpt>
      <trkpt lat="43.64469" lon="1.37881">
        <ele>149</ele>
        <time>2023-07-08T05:33:17Z</time>
      </trkpt>
      <trkpt lat="43.64467" lon="1.37884">
        <ele>149</ele>
        <time>2023-07-08T05:33:18Z</time>
      </trkpt>
      <trkpt lat="43.64467" lon="1.37884">
        <ele>149</ele>
        <time>2023-07-08T05:33:19Z</time>
      </trkpt>
      <trkpt lat="43.64464" lon="1.37892">
        <ele>149</ele>
        <time>2023-07-08T05:33:20Z</time>
      </trkpt>
      <trkpt lat="43.64463" lon="1.37897">
        <ele>148</ele>
        <time>2023-07-08T05:33:21Z</time>
      </trkpt>
      <trkpt lat="43.64461" lon="1.37903">
        <ele>148</ele>
        <time>2023-07-08T05:33:22Z</time>
      </trkpt>
      <trkpt lat="43.64461" lon="1.37903">
        <ele>148</ele>
        <time>2023-07-08T05:33:23Z</time>
      </trkpt>
      <trkpt lat="43.64459" lon="1.37915">
        <ele>148</ele>
        <time>2023-07-08T05:33:24Z</time>
      </trkpt>
      <trkpt lat="43.64459" lon="1.37917">
        <ele>148</ele>
        <time>2023-07-08T05:33:25Z</time>
      </trkpt>
      <trkpt lat="43.64459" lon="1.37917">
        <ele>148</ele>
        <time>2023-07-08T05:33:26Z</time>
      </trkpt>
      <trkpt lat="43.6446" lon="1.37922">
        <ele>148</ele>
        <time>2023-07-08T05:33:27Z</time>
      </trkpt>
      <trkpt lat="43.64461" lon="1.37926">
        <ele>148</ele>
        <time>2023-07-08T05:33:28Z</time>
      </trkpt>
      <trkpt lat="43.64465" lon="1.37933">
        <ele>148</ele>
        <time>2023-07-08T05:33:29Z</time>
      </trkpt>
      <trkpt lat="43.64467" lon="1.37937">
        <ele>148</ele>
        <time>2023-07-08T05:33:30Z</time>
      </trkpt>
      <trkpt lat="43.64469" lon="1.3794">
        <ele>148</ele>
        <time>2023-07-08T05:33:31Z</time>
      </trkpt>
      <trkpt lat="43.64471" lon="1.37942">
        <ele>148</ele>
        <time>2023-07-08T05:33:32Z</time>
      </trkpt>
      <trkpt lat="43.64474" lon="1.37945">
        <ele>148</ele>
        <time>2023-07-08T05:33:33Z</time>
      </trkpt>
      <trkpt lat="43.64477" lon="1.37946">
        <ele>148</ele>
        <time>2023-07-08T05:33:34Z</time>
      </trkpt>
      <trkpt lat="43.6448" lon="1.37948">
        <ele>148</ele>
        <time>2023-07-08T05:33:35Z</time>
      </trkpt>
      <trkpt lat="43.64484" lon="1.3795">
        <ele>148</ele>
        <time>2023-07-08T05:33:36Z</time>
      </trkpt>
      <trkpt lat="43.64487" lon="1.37951">
        <ele>148</ele>
        <time>2023-07-08T05:33:37Z</time>
      </trkpt>
      <trkpt lat="43.64487" lon="1.37951">
        <ele>148</ele>
        <time>2023-07-08T05:33:38Z</time>
      </trkpt>
      <trkpt lat="43.6449" lon="1.37953">
        <ele>148</ele>
        <time>2023-07-08T05:33:39Z</time>
      </trkpt>
      <trkpt lat="43.64496" lon="1.37956">
        <ele>148</ele>
        <time>2023-07-08T05:33:40Z</time>
      </trkpt>
      <trkpt lat="43.64496" lon="1.37956">
        <ele>148</ele>
        <time>2023-07-08T05:33:41Z</time>
      </trkpt>
      <trkpt lat="43.64499" lon="1.37958">
        <ele>148</ele>
        <time>2023-07-08T05:33:42Z</time>
      </trkpt>
      <trkpt lat="43.64503" lon="1.3796">
        <ele>148</ele>
        <time>2023-07-08T05:33:43Z</time>
      </trkpt>
      <trkpt lat="43.64509" lon="1.37964">
        <ele>148</ele>
        <time>2023-07-08T05:33:44Z</time>
      </trkpt>
      <trkpt lat="43.64512" lon="1.37966">
        <ele>148</ele>
        <time>2023-07-08T05:33:45Z</time>
      </trkpt>
      <trkpt lat="43.64514" lon="1.37968">
        <ele>148</ele>
        <time>2023-07-08T05:33:46Z</time>
      </trkpt>
      <trkpt lat="43.64517" lon="1.3797">
        <ele>148</ele>
        <time>2023-07-08T05:33:47Z</time>
      </trkpt>
      <trkpt lat="43.64517" lon="1.3797">
        <ele>148</ele>
        <time>2023-07-08T05:33:48Z</time>
      </trkpt>
      <trkpt lat="43.6452" lon="1.37972">
        <ele>148</ele>
        <time>2023-07-08T05:33:49Z</time>
      </trkpt>
      <trkpt lat="43.64523" lon="1.37973">
        <ele>148</ele>
        <time>2023-07-08T05:33:50Z</time>
      </trkpt>
      <trkpt lat="43.64528" lon="1.37977">
        <ele>148</ele>
        <time>2023-07-08T05:33:51Z</time>
      </trkpt>
      <trkpt lat="43.6453" lon="1.37978">
        <ele>148</ele>
        <time>2023-07-08T05:33:52Z</time>
      </trkpt>
      <trkpt lat="43.64533" lon="1.37978">
        <ele>148</ele>
        <time>2023-07-08T05:33:53Z</time>
      </trkpt>
      <trkpt lat="43.64536" lon="1.37979">
        <ele>148</ele>
        <time>2023-07-08T05:33:54Z</time>
      </trkpt>
      <trkpt lat="43.64539" lon="1.37979">
        <ele>148</ele>
        <time>2023-07-08T05:33:55Z</time>
      </trkpt>
      <trkpt lat="43.64542" lon="1.37979">
        <ele>148</ele>
        <time>2023-07-08T05:33:56Z</time>
      </trkpt>
      <trkpt lat="43.64542" lon="1.37979">
        <ele>148</ele>
        <time>2023-07-08T05:33:57Z</time>
      </trkpt>
      <trkpt lat="43.64545" lon="1.37978">
        <ele>148</ele>
        <time>2023-07-08T05:33:58Z</time>
      </trkpt>
      <trkpt lat="43.64548" lon="1.37977">
        <ele>148</ele>
        <time>2023-07-08T05:33:59Z</time>
      </trkpt>
      <trkpt lat="43.6455" lon="1.37976">
        <ele>148</ele>
        <time>2023-07-08T05:34:00Z</time>
      </trkpt>
      <trkpt lat="43.64553" lon="1.37974">
        <ele>148</ele>
        <time>2023-07-08T05:34:01Z</time>
      </trkpt>
      <trkpt lat="43.64556" lon="1.37973">
        <ele>148</ele>
        <time>2023-07-08T05:34:02Z</time>
      </trkpt>
      <trkpt lat="43.6456" lon="1.37968">
        <ele>147</ele>
        <time>2023-07-08T05:34:03Z</time>
      </trkpt>
      <trkpt lat="43.64563" lon="1.37965">
        <ele>147</ele>
        <time>2023-07-08T05:34:04Z</time>
      </trkpt>
      <trkpt lat="43.64563" lon="1.37965">
        <ele>147</ele>
        <time>2023-07-08T05:34:05Z</time>
      </trkpt>
      <trkpt lat="43.64568" lon="1.37959">
        <ele>147</ele>
        <time>2023-07-08T05:34:06Z</time>
      </trkpt>
      <trkpt lat="43.64568" lon="1.37959">
        <ele>147</ele>
        <time>2023-07-08T05:34:07Z</time>
      </trkpt>
      <trkpt lat="43.64571" lon="1.37952">
        <ele>147</ele>
        <time>2023-07-08T05:34:08Z</time>
      </trkpt>
      <trkpt lat="43.64571" lon="1.37947">
        <ele>147</ele>
        <time>2023-07-08T05:34:09Z</time>
      </trkpt>
      <trkpt lat="43.6457" lon="1.37942">
        <ele>147</ele>
        <time>2023-07-08T05:34:10Z</time>
      </trkpt>
      <trkpt lat="43.6457" lon="1.37942">
        <ele>147</ele>
        <time>2023-07-08T05:34:11Z</time>
      </trkpt>
      <trkpt lat="43.6457" lon="1.37938">
        <ele>147</ele>
        <time>2023-07-08T05:34:12Z</time>
      </trkpt>
      <trkpt lat="43.64569" lon="1.37934">
        <ele>147</ele>
        <time>2023-07-08T05:34:13Z</time>
      </trkpt>
      <trkpt lat="43.64569" lon="1.3793">
        <ele>147</ele>
        <time>2023-07-08T05:34:14Z</time>
      </trkpt>
      <trkpt lat="43.64567" lon="1.37926">
        <ele>147</ele>
        <time>2023-07-08T05:34:15Z</time>
      </trkpt>
      <trkpt lat="43.64565" lon="1.37922">
        <ele>148</ele>
        <time>2023-07-08T05:34:16Z</time>
      </trkpt>
      <trkpt lat="43.6456" lon="1.37914">
        <ele>148</ele>
        <time>2023-07-08T05:34:17Z</time>
      </trkpt>
      <trkpt lat="43.64558" lon="1.37911">
        <ele>148</ele>
        <time>2023-07-08T05:34:18Z</time>
      </trkpt>
      <trkpt lat="43.64555" lon="1.37908">
        <ele>148</ele>
        <time>2023-07-08T05:34:19Z</time>
      </trkpt>
      <trkpt lat="43.64555" lon="1.37908">
        <ele>147</ele>
        <time>2023-07-08T05:34:20Z</time>
      </trkpt>
      <trkpt lat="43.64553" lon="1.37905">
        <ele>148</ele>
        <time>2023-07-08T05:34:21Z</time>
      </trkpt>
      <trkpt lat="43.64547" lon="1.37901">
        <ele>148</ele>
        <time>2023-07-08T05:34:22Z</time>
      </trkpt>
      <trkpt lat="43.64544" lon="1.37899">
        <ele>148</ele>
        <time>2023-07-08T05:34:23Z</time>
      </trkpt>
      <trkpt lat="43.64544" lon="1.37899">
        <ele>148</ele>
        <time>2023-07-08T05:34:24Z</time>
      </trkpt>
      <trkpt lat="43.64542" lon="1.37896">
        <ele>148</ele>
        <time>2023-07-08T05:34:25Z</time>
      </trkpt>
      <trkpt lat="43.64539" lon="1.37894">
        <ele>148</ele>
        <time>2023-07-08T05:34:26Z</time>
      </trkpt>
      <trkpt lat="43.64536" lon="1.37892">
        <ele>148</ele>
        <time>2023-07-08T05:34:27Z</time>
      </trkpt>
      <trkpt lat="43.64533" lon="1.37891">
        <ele>148</ele>
        <time>2023-07-08T05:34:28Z</time>
      </trkpt>
      <trkpt lat="43.64527" lon="1.37887">
        <ele>148</ele>
        <time>2023-07-08T05:34:29Z</time>
      </trkpt>
      <trkpt lat="43.64523" lon="1.37886">
        <ele>148</ele>
        <time>2023-07-08T05:34:30Z</time>
      </trkpt>
      <trkpt lat="43.6452" lon="1.37884">
        <ele>148</ele>
        <time>2023-07-08T05:34:31Z</time>
      </trkpt>
      <trkpt lat="43.6452" lon="1.37884">
        <ele>148</ele>
        <time>2023-07-08T05:34:32Z</time>
      </trkpt>
      <trkpt lat="43.64517" lon="1.37883">
        <ele>148</ele>
        <time>2023-07-08T05:34:33Z</time>
      </trkpt>
      <trkpt lat="43.64511" lon="1.37879">
        <ele>148</ele>
        <time>2023-07-08T05:34:34Z</time>
      </trkpt>
      <trkpt lat="43.64508" lon="1.37878">
        <ele>148</ele>
        <time>2023-07-08T05:34:35Z</time>
      </trkpt>
      <trkpt lat="43.64508" lon="1.37878">
        <ele>148</ele>
        <time>2023-07-08T05:34:36Z</time>
      </trkpt>
      <trkpt lat="43.64502" lon="1.37874">
        <ele>148</ele>
        <time>2023-07-08T05:34:37Z</time>
      </trkpt>
      <trkpt lat="43.64499" lon="1.37874">
        <ele>148</ele>
        <time>2023-07-08T05:34:38Z</time>
      </trkpt>
      <trkpt lat="43.64496" lon="1.37872">
        <ele>148</ele>
        <time>2023-07-08T05:34:39Z</time>
      </trkpt>
      <trkpt lat="43.64496" lon="1.37872">
        <ele>148</ele>
        <time>2023-07-08T05:34:40Z</time>
      </trkpt>
      <trkpt lat="43.64493" lon="1.37872">
        <ele>148</ele>
        <time>2023-07-08T05:34:41Z</time>
      </trkpt>
      <trkpt lat="43.6449" lon="1.37871">
        <ele>148</ele>
        <time>2023-07-08T05:34:42Z</time>
      </trkpt>
      <trkpt lat="43.64487" lon="1.37871">
        <ele>148</ele>
        <time>2023-07-08T05:34:43Z</time>
      </trkpt>
      <trkpt lat="43.64481" lon="1.37872">
        <ele>148</ele>
        <time>2023-07-08T05:34:44Z</time>
      </trkpt>
      <trkpt lat="43.64481" lon="1.37872">
        <ele>148</ele>
        <time>2023-07-08T05:34:45Z</time>
      </trkpt>
      <trkpt lat="43.64478" lon="1.37872">
        <ele>148</ele>
        <time>2023-07-08T05:34:46Z</time>
      </trkpt>
      <trkpt lat="43.64472" lon="1.37876">
        <ele>148</ele>
        <time>2023-07-08T05:34:47Z</time>
      </trkpt>
      <trkpt lat="43.64469" lon="1.37878">
        <ele>148</ele>
        <time>2023-07-08T05:34:48Z</time>
      </trkpt>
      <trkpt lat="43.64469" lon="1.37878">
        <ele>148</ele>
        <time>2023-07-08T05:34:49Z</time>
      </trkpt>
      <trkpt lat="43.64467" lon="1.37881">
        <ele>148</ele>
        <time>2023-07-08T05:34:50Z</time>
      </trkpt>
      <trkpt lat="43.64465" lon="1.37884">
        <ele>148</ele>
        <time>2023-07-08T05:34:51Z</time>
      </trkpt>
      <trkpt lat="43.64463" lon="1.37888">
        <ele>148</ele>
        <time>2023-07-08T05:34:52Z</time>
      </trkpt>
      <trkpt lat="43.64461" lon="1.37892">
        <ele>148</ele>
        <time>2023-07-08T05:34:53Z</time>
      </trkpt>
      <trkpt lat="43.64459" lon="1.379">
        <ele>148</ele>
        <time>2023-07-08T05:34:54Z</time>
      </trkpt>
      <trkpt lat="43.64459" lon="1.37905">
        <ele>148</ele>
        <time>2023-07-08T05:34:55Z</time>
      </trkpt>
      <trkpt lat="43.64458" lon="1.37909">
        <ele>147</ele>
        <time>2023-07-08T05:34:56Z</time>
      </trkpt>
      <trkpt lat="43.64458" lon="1.37909">
        <ele>147</ele>
        <time>2023-07-08T05:34:57Z</time>
      </trkpt>
      <trkpt lat="43.64459" lon="1.37914">
        <ele>147</ele>
        <time>2023-07-08T05:34:58Z</time>
      </trkpt>
      <trkpt lat="43.64459" lon="1.37918">
        <ele>148</ele>
        <time>2023-07-08T05:34:59Z</time>
      </trkpt>
      <trkpt lat="43.64461" lon="1.37927">
        <ele>148</ele>
        <time>2023-07-08T05:35:00Z</time>
      </trkpt>
      <trkpt lat="43.64462" lon="1.3793">
        <ele>148</ele>
        <time>2023-07-08T05:35:01Z</time>
      </trkpt>
      <trkpt lat="43.64464" lon="1.37934">
        <ele>148</ele>
        <time>2023-07-08T05:35:02Z</time>
      </trkpt>
      <trkpt lat="43.64466" lon="1.37937">
        <ele>148</ele>
        <time>2023-07-08T05:35:03Z</time>
      </trkpt>
      <trkpt lat="43.64468" lon="1.37941">
        <ele>148</ele>
        <time>2023-07-08T05:35:04Z</time>
      </trkpt>
      <trkpt lat="43.64471" lon="1.37944">
        <ele>148</ele>
        <time>2023-07-08T05:35:05Z</time>
      </trkpt>
      <trkpt lat="43.64471" lon="1.37944">
        <ele>148</ele>
        <time>2023-07-08T05:35:06Z</time>
      </trkpt>
      <trkpt lat="43.64473" lon="1.37946">
        <ele>148</ele>
        <time>2023-07-08T05:35:07Z</time>
      </trkpt>
      <trkpt lat="43.64479" lon="1.3795">
        <ele>148</ele>
        <time>2023-07-08T05:35:08Z</time>
      </trkpt>
      <trkpt lat="43.64483" lon="1.37952">
        <ele>147</ele>
        <time>2023-07-08T05:35:09Z</time>
      </trkpt>
      <trkpt lat="43.64483" lon="1.37952">
        <ele>147</ele>
        <time>2023-07-08T05:35:10Z</time>
      </trkpt>
      <trkpt lat="43.64486" lon="1.37954">
        <ele>147</ele>
        <time>2023-07-08T05:35:11Z</time>
      </trkpt>
      <trkpt lat="43.64492" lon="1.37957">
        <ele>147</ele>
        <time>2023-07-08T05:35:12Z</time>
      </trkpt>
      <trkpt lat="43.64492" lon="1.37957">
        <ele>148</ele>
        <time>2023-07-08T05:35:13Z</time>
      </trkpt>
      <trkpt lat="43.64498" lon="1.3796">
        <ele>148</ele>
        <time>2023-07-08T05:35:14Z</time>
      </trkpt>
      <trkpt lat="43.64501" lon="1.37962">
        <ele>148</ele>
        <time>2023-07-08T05:35:15Z</time>
      </trkpt>
      <trkpt lat="43.64501" lon="1.37962">
        <ele>148</ele>
        <time>2023-07-08T05:35:16Z</time>
      </trkpt>
      <trkpt lat="43.64504" lon="1.37963">
        <ele>148</ele>
        <time>2023-07-08T05:35:17Z</time>
      </trkpt>
      <trkpt lat="43.64507" lon="1.37965">
        <ele>148</ele>
        <time>2023-07-08T05:35:18Z</time>
      </trkpt>
      <trkpt lat="43.6451" lon="1.37967">
        <ele>148</ele>
        <time>2023-07-08T05:35:19Z</time>
      </trkpt>
      <trkpt lat="43.64516" lon="1.37971">
        <ele>148</ele>
        <time>2023-07-08T05:35:20Z</time>
      </trkpt>
      <trkpt lat="43.64518" lon="1.37973">
        <ele>148</ele>
        <time>2023-07-08T05:35:21Z</time>
      </trkpt>
      <trkpt lat="43.64518" lon="1.37973">
        <ele>148</ele>
        <time>2023-07-08T05:35:22Z</time>
      </trkpt>
      <trkpt lat="43.64524" lon="1.37977">
        <ele>148</ele>
        <time>2023-07-08T05:35:23Z</time>
      </trkpt>
      <trkpt lat="43.64528" lon="1.37978">
        <ele>148</ele>
        <time>2023-07-08T05:35:24Z</time>
      </trkpt>
      <trkpt lat="43.64531" lon="1.3798">
        <ele>148</ele>
        <time>2023-07-08T05:35:25Z</time>
      </trkpt>
      <trkpt lat="43.64534" lon="1.37981">
        <ele>148</ele>
        <time>2023-07-08T05:35:26Z</time>
      </trkpt>
      <trkpt lat="43.64534" lon="1.37981">
        <ele>147</ele>
        <time>2023-07-08T05:35:27Z</time>
      </trkpt>
      <trkpt lat="43.64537" lon="1.37982">
        <ele>147</ele>
        <time>2023-07-08T05:35:28Z</time>
      </trkpt>
      <trkpt lat="43.6454" lon="1.37982">
        <ele>147</ele>
        <time>2023-07-08T05:35:29Z</time>
      </trkpt>
      <trkpt lat="43.64546" lon="1.37981">
        <ele>147</ele>
        <time>2023-07-08T05:35:30Z</time>
      </trkpt>
      <trkpt lat="43.64546" lon="1.37981">
        <ele>147</ele>
        <time>2023-07-08T05:35:31Z</time>
      </trkpt>
      <trkpt lat="43.64552" lon="1.37977">
        <ele>148</ele>
        <time>2023-07-08T05:35:32Z</time>
      </trkpt>
      <trkpt lat="43.64555" lon="1.37975">
        <ele>148</ele>
        <time>2023-07-08T05:35:33Z</time>
      </trkpt>
      <trkpt lat="43.64555" lon="1.37975">
        <ele>148</ele>
        <time>2023-07-08T05:35:34Z</time>
      </trkpt>
      <trkpt lat="43.64557" lon="1.37972">
        <ele>148</ele>
        <time>2023-07-08T05:35:35Z</time>
      </trkpt>
      <trkpt lat="43.6456" lon="1.3797">
        <ele>148</ele>
        <time>2023-07-08T05:35:36Z</time>
      </trkpt>
      <trkpt lat="43.64562" lon="1.37966">
        <ele>147</ele>
        <time>2023-07-08T05:35:37Z</time>
      </trkpt>
      <trkpt lat="43.64566" lon="1.3796">
        <ele>147</ele>
        <time>2023-07-08T05:35:38Z</time>
      </trkpt>
      <trkpt lat="43.64568" lon="1.37956">
        <ele>148</ele>
        <time>2023-07-08T05:35:39Z</time>
      </trkpt>
      <trkpt lat="43.64568" lon="1.37956">
        <ele>148</ele>
        <time>2023-07-08T05:35:40Z</time>
      </trkpt>
      <trkpt lat="43.64569" lon="1.37947">
        <ele>147</ele>
        <time>2023-07-08T05:35:41Z</time>
      </trkpt>
      <trkpt lat="43.64569" lon="1.37942">
        <ele>147</ele>
        <time>2023-07-08T05:35:42Z</time>
      </trkpt>
      <trkpt lat="43.64569" lon="1.37937">
        <ele>147</ele>
        <time>2023-07-08T05:35:43Z</time>
      </trkpt>
      <trkpt lat="43.64569" lon="1.37937">
        <ele>147</ele>
        <time>2023-07-08T05:35:44Z</time>
      </trkpt>
      <trkpt lat="43.64568" lon="1.37933">
        <ele>147</ele>
        <time>2023-07-08T05:35:45Z</time>
      </trkpt>
      <trkpt lat="43.64567" lon="1.37928">
        <ele>147</ele>
        <time>2023-07-08T05:35:46Z</time>
      </trkpt>
      <trkpt lat="43.64564" lon="1.37921">
        <ele>147</ele>
        <time>2023-07-08T05:35:47Z</time>
      </trkpt>
      <trkpt lat="43.64561" lon="1.37917">
        <ele>147</ele>
        <time>2023-07-08T05:35:48Z</time>
      </trkpt>
      <trkpt lat="43.64561" lon="1.37917">
        <ele>147</ele>
        <time>2023-07-08T05:35:49Z</time>
      </trkpt>
      <trkpt lat="43.64556" lon="1.37911">
        <ele>147</ele>
        <time>2023-07-08T05:35:50Z</time>
      </trkpt>
      <trkpt lat="43.64554" lon="1.37908">
        <ele>147</ele>
        <time>2023-07-08T05:35:51Z</time>
      </trkpt>
      <trkpt lat="43.64551" lon="1.37906">
        <ele>147</ele>
        <time>2023-07-08T05:35:52Z</time>
      </trkpt>
      <trkpt lat="43.64551" lon="1.37906">
        <ele>147</ele>
        <time>2023-07-08T05:35:53Z</time>
      </trkpt>
      <trkpt lat="43.64545" lon="1.37902">
        <ele>147</ele>
        <time>2023-07-08T05:35:54Z</time>
      </trkpt>
      <trkpt lat="43.64542" lon="1.379">
        <ele>147</ele>
        <time>2023-07-08T05:35:55Z</time>
      </trkpt>
      <trkpt lat="43.64542" lon="1.379">
        <ele>148</ele>
        <time>2023-07-08T05:35:56Z</time>
      </trkpt>
      <trkpt lat="43.64538" lon="1.37898">
        <ele>148</ele>
        <time>2023-07-08T05:35:57Z</time>
      </trkpt>
      <trkpt lat="43.64535" lon="1.37896">
        <ele>148</ele>
        <time>2023-07-08T05:35:58Z</time>
      </trkpt>
      <trkpt lat="43.64532" lon="1.37895">
        <ele>148</ele>
        <time>2023-07-08T05:35:59Z</time>
      </trkpt>
      <trkpt lat="43.64527" lon="1.37892">
        <ele>148</ele>
        <time>2023-07-08T05:36:00Z</time>
      </trkpt>
      <trkpt lat="43.64526" lon="1.37891">
        <ele>148</ele>
        <time>2023-07-08T05:36:01Z</time>
      </trkpt>
      <trkpt lat="43.64523" lon="1.3789">
        <ele>148</ele>
        <time>2023-07-08T05:36:02Z</time>
      </trkpt>
      <trkpt lat="43.64516" lon="1.37886">
        <ele>148</ele>
        <time>2023-07-08T05:36:03Z</time>
      </trkpt>
      <trkpt lat="43.64516" lon="1.37886">
        <ele>148</ele>
        <time>2023-07-08T05:36:04Z</time>
      </trkpt>
      <trkpt lat="43.64513" lon="1.37883">
        <ele>148</ele>
        <time>2023-07-08T05:36:05Z</time>
      </trkpt>
      <trkpt lat="43.64508" lon="1.37879">
        <ele>148</ele>
        <time>2023-07-08T05:36:06Z</time>
      </trkpt>
      <trkpt lat="43.64508" lon="1.37879">
        <ele>148</ele>
        <time>2023-07-08T05:36:07Z</time>
      </trkpt>
      <trkpt lat="43.64505" lon="1.37877">
        <ele>148</ele>
        <time>2023-07-08T05:36:08Z</time>
      </trkpt>
      <trkpt lat="43.64503" lon="1.37875">
        <ele>148</ele>
        <time>2023-07-08T05:36:09Z</time>
      </trkpt>
      <trkpt lat="43.645" lon="1.37872">
        <ele>148</ele>
        <time>2023-07-08T05:36:10Z</time>
      </trkpt>
      <trkpt lat="43.64494" lon="1.37869">
        <ele>148</ele>
        <time>2023-07-08T05:36:11Z</time>
      </trkpt>
      <trkpt lat="43.64491" lon="1.37869">
        <ele>148</ele>
        <time>2023-07-08T05:36:12Z</time>
      </trkpt>
      <trkpt lat="43.64488" lon="1.37868">
        <ele>148</ele>
        <time>2023-07-08T05:36:13Z</time>
      </trkpt>
      <trkpt lat="43.64485" lon="1.37868">
        <ele>148</ele>
        <time>2023-07-08T05:36:14Z</time>
      </trkpt>
      <trkpt lat="43.64485" lon="1.37868">
        <ele>148</ele>
        <time>2023-07-08T05:36:15Z</time>
      </trkpt>
      <trkpt lat="43.64482" lon="1.37868">
        <ele>148</ele>
        <time>2023-07-08T05:36:16Z</time>
      </trkpt>
      <trkpt lat="43.6448" lon="1.37869">
        <ele>148</ele>
        <time>2023-07-08T05:36:17Z</time>
      </trkpt>
      <trkpt lat="43.64477" lon="1.37871">
        <ele>147</ele>
        <time>2023-07-08T05:36:18Z</time>
      </trkpt>
      <trkpt lat="43.64471" lon="1.37876">
        <ele>147</ele>
        <time>2023-07-08T05:36:19Z</time>
      </trkpt>
      <trkpt lat="43.64469" lon="1.37879">
        <ele>148</ele>
        <time>2023-07-08T05:36:20Z</time>
      </trkpt>
      <trkpt lat="43.64467" lon="1.37883">
        <ele>148</ele>
        <time>2023-07-08T05:36:21Z</time>
      </trkpt>
      <trkpt lat="43.64467" lon="1.37883">
        <ele>148</ele>
        <time>2023-07-08T05:36:22Z</time>
      </trkpt>
      <trkpt lat="43.64463" lon="1.3789">
        <ele>148</ele>
        <time>2023-07-08T05:36:23Z</time>
      </trkpt>
      <trkpt lat="43.64463" lon="1.3789">
        <ele>148</ele>
        <time>2023-07-08T05:36:24Z</time>
      </trkpt>
      <trkpt lat="43.64461" lon="1.37897">
        <ele>148</ele>
        <time>2023-07-08T05:36:25Z</time>
      </trkpt>
      <trkpt lat="43.64461" lon="1.37902">
        <ele>148</ele>
        <time>2023-07-08T05:36:26Z</time>
      </trkpt>
      <trkpt lat="43.64459" lon="1.37906">
        <ele>147</ele>
        <time>2023-07-08T05:36:27Z</time>
      </trkpt>
      <trkpt lat="43.64459" lon="1.37906">
        <ele>147</ele>
        <time>2023-07-08T05:36:28Z</time>
      </trkpt>
      <trkpt lat="43.64459" lon="1.37911">
        <ele>147</ele>
        <time>2023-07-08T05:36:29Z</time>
      </trkpt>
      <trkpt lat="43.64459" lon="1.37915">
        <ele>147</ele>
        <time>2023-07-08T05:36:30Z</time>
      </trkpt>
      <trkpt lat="43.6446" lon="1.3792">
        <ele>147</ele>
        <time>2023-07-08T05:36:31Z</time>
      </trkpt>
      <trkpt lat="43.64462" lon="1.37928">
        <ele>147</ele>
        <time>2023-07-08T05:36:32Z</time>
      </trkpt>
      <trkpt lat="43.64464" lon="1.37931">
        <ele>147</ele>
        <time>2023-07-08T05:36:33Z</time>
      </trkpt>
      <trkpt lat="43.64464" lon="1.37931">
        <ele>147</ele>
        <time>2023-07-08T05:36:34Z</time>
      </trkpt>
      <trkpt lat="43.64465" lon="1.37934">
        <ele>147</ele>
        <time>2023-07-08T05:36:35Z</time>
      </trkpt>
      <trkpt lat="43.64468" lon="1.37937">
        <ele>147</ele>
        <time>2023-07-08T05:36:36Z</time>
      </trkpt>
      <trkpt lat="43.6447" lon="1.37939">
        <ele>147</ele>
        <time>2023-07-08T05:36:37Z</time>
      </trkpt>
      <trkpt lat="43.64472" lon="1.37941">
        <ele>147</ele>
        <time>2023-07-08T05:36:38Z</time>
      </trkpt>
      <trkpt lat="43.64475" lon="1.37944">
        <ele>147</ele>
        <time>2023-07-08T05:36:39Z</time>
      </trkpt>
      <trkpt lat="43.64478" lon="1.37945">
        <ele>147</ele>
        <time>2023-07-08T05:36:40Z</time>
      </trkpt>
      <trkpt lat="43.64485" lon="1.37948">
        <ele>147</ele>
        <time>2023-07-08T05:36:41Z</time>
      </trkpt>
      <trkpt lat="43.64488" lon="1.3795">
        <ele>147</ele>
        <time>2023-07-08T05:36:42Z</time>
      </trkpt>
      <trkpt lat="43.64488" lon="1.3795">
        <ele>147</ele>
        <time>2023-07-08T05:36:43Z</time>
      </trkpt>
      <trkpt lat="43.64491" lon="1.37951">
        <ele>148</ele>
        <time>2023-07-08T05:36:44Z</time>
      </trkpt>
      <trkpt lat="43.64493" lon="1.37953">
        <ele>148</ele>
        <time>2023-07-08T05:36:45Z</time>
      </trkpt>
      <trkpt lat="43.64499" lon="1.37956">
        <ele>148</ele>
        <time>2023-07-08T05:36:46Z</time>
      </trkpt>
      <trkpt lat="43.64499" lon="1.37956">
        <ele>148</ele>
        <time>2023-07-08T05:36:47Z</time>
      </trkpt>
      <trkpt lat="43.64505" lon="1.3796">
        <ele>148</ele>
        <time>2023-07-08T05:36:48Z</time>
      </trkpt>
      <trkpt lat="43.64508" lon="1.37962">
        <ele>148</ele>
        <time>2023-07-08T05:36:49Z</time>
      </trkpt>
      <trkpt lat="43.64508" lon="1.37962">
        <ele>148</ele>
        <time>2023-07-08T05:36:50Z</time>
      </trkpt>
      <trkpt lat="43.64513" lon="1.37965">
        <ele>147</ele>
        <time>2023-07-08T05:36:51Z</time>
      </trkpt>
      <trkpt lat="43.64516" lon="1.37966">
        <ele>147</ele>
        <time>2023-07-08T05:36:52Z</time>
      </trkpt>
      <trkpt lat="43.64519" lon="1.37968">
        <ele>147</ele>
        <time>2023-07-08T05:36:53Z</time>
      </trkpt>
      <trkpt lat="43.64522" lon="1.3797">
        <ele>147</ele>
        <time>2023-07-08T05:36:54Z</time>
      </trkpt>
      <trkpt lat="43.64522" lon="1.3797">
        <ele>148</ele>
        <time>2023-07-08T05:36:55Z</time>
      </trkpt>
      <trkpt lat="43.64525" lon="1.37972">
        <ele>148</ele>
        <time>2023-07-08T05:36:56Z</time>
      </trkpt>
      <trkpt lat="43.64527" lon="1.37974">
        <ele>147</ele>
        <time>2023-07-08T05:36:57Z</time>
      </trkpt>
      <trkpt lat="43.6453" lon="1.37975">
        <ele>147</ele>
        <time>2023-07-08T05:36:58Z</time>
      </trkpt>
      <trkpt lat="43.64533" lon="1.37976">
        <ele>147</ele>
        <time>2023-07-08T05:36:59Z</time>
      </trkpt>
      <trkpt lat="43.6454" lon="1.37978">
        <ele>147</ele>
        <time>2023-07-08T05:37:00Z</time>
      </trkpt>
      <trkpt lat="43.64544" lon="1.37978">
        <ele>147</ele>
        <time>2023-07-08T05:37:01Z</time>
      </trkpt>
      <trkpt lat="43.64547" lon="1.37978">
        <ele>147</ele>
        <time>2023-07-08T05:37:02Z</time>
      </trkpt>
      <trkpt lat="43.64547" lon="1.37978">
        <ele>147</ele>
        <time>2023-07-08T05:37:03Z</time>
      </trkpt>
      <trkpt lat="43.64553" lon="1.37975">
        <ele>147</ele>
        <time>2023-07-08T05:37:04Z</time>
      </trkpt>
      <trkpt lat="43.64556" lon="1.37974">
        <ele>147</ele>
        <time>2023-07-08T05:37:05Z</time>
      </trkpt>
      <trkpt lat="43.64559" lon="1.37972">
        <ele>148</ele>
        <time>2023-07-08T05:37:06Z</time>
      </trkpt>
      <trkpt lat="43.64559" lon="1.37972">
        <ele>148</ele>
        <time>2023-07-08T05:37:07Z</time>
      </trkpt>
      <trkpt lat="43.64562" lon="1.37969">
        <ele>148</ele>
        <time>2023-07-08T05:37:08Z</time>
      </trkpt>
      <trkpt lat="43.64564" lon="1.37966">
        <ele>147</ele>
        <time>2023-07-08T05:37:09Z</time>
      </trkpt>
      <trkpt lat="43.64569" lon="1.3796">
        <ele>147</ele>
        <time>2023-07-08T05:37:10Z</time>
      </trkpt>
      <trkpt lat="43.64569" lon="1.3796">
        <ele>147</ele>
        <time>2023-07-08T05:37:11Z</time>
      </trkpt>
      <trkpt lat="43.6457" lon="1.37957">
        <ele>147</ele>
        <time>2023-07-08T05:37:12Z</time>
      </trkpt>
      <trkpt lat="43.64571" lon="1.37948">
        <ele>147</ele>
        <time>2023-07-08T05:37:13Z</time>
      </trkpt>
      <trkpt lat="43.64572" lon="1.37944">
        <ele>147</ele>
        <time>2023-07-08T05:37:14Z</time>
      </trkpt>
      <trkpt lat="43.64571" lon="1.37939">
        <ele>147</ele>
        <time>2023-07-08T05:37:15Z</time>
      </trkpt>
      <trkpt lat="43.64571" lon="1.37939">
        <ele>147</ele>
        <time>2023-07-08T05:37:16Z</time>
      </trkpt>
      <trkpt lat="43.6457" lon="1.37935">
        <ele>147</ele>
        <time>2023-07-08T05:37:17Z</time>
      </trkpt>
      <trkpt lat="43.64567" lon="1.37926">
        <ele>147</ele>
        <time>2023-07-08T05:37:18Z</time>
      </trkpt>
      <trkpt lat="43.64566" lon="1.37922">
        <ele>147</ele>
        <time>2023-07-08T05:37:19Z</time>
      </trkpt>
      <trkpt lat="43.64566" lon="1.37922">
        <ele>147</ele>
        <time>2023-07-08T05:37:20Z</time>
      </trkpt>
      <trkpt lat="43.64563" lon="1.37919">
        <ele>147</ele>
        <time>2023-07-08T05:37:21Z</time>
      </trkpt>
      <trkpt lat="43.6456" lon="1.37915">
        <ele>147</ele>
        <time>2023-07-08T05:37:22Z</time>
      </trkpt>
      <trkpt lat="43.64558" lon="1.37912">
        <ele>147</ele>
        <time>2023-07-08T05:37:23Z</time>
      </trkpt>
      <trkpt lat="43.64552" lon="1.37907">
        <ele>147</ele>
        <time>2023-07-08T05:37:24Z</time>
      </trkpt>
      <trkpt lat="43.64549" lon="1.37905">
        <ele>147</ele>
        <time>2023-07-08T05:37:25Z</time>
      </trkpt>
      <trkpt lat="43.64549" lon="1.37905">
        <ele>147</ele>
        <time>2023-07-08T05:37:26Z</time>
      </trkpt>
      <trkpt lat="43.64543" lon="1.37901">
        <ele>147</ele>
        <time>2023-07-08T05:37:27Z</time>
      </trkpt>
      <trkpt lat="43.64541" lon="1.37898">
        <ele>147</ele>
        <time>2023-07-08T05:37:28Z</time>
      </trkpt>
      <trkpt lat="43.64541" lon="1.37898">
        <ele>147</ele>
        <time>2023-07-08T05:37:29Z</time>
      </trkpt>
      <trkpt lat="43.64537" lon="1.37896">
        <ele>147</ele>
        <time>2023-07-08T05:37:30Z</time>
      </trkpt>
      <trkpt lat="43.64534" lon="1.37894">
        <ele>148</ele>
        <time>2023-07-08T05:37:31Z</time>
      </trkpt>
      <trkpt lat="43.64528" lon="1.37891">
        <ele>148</ele>
        <time>2023-07-08T05:37:32Z</time>
      </trkpt>
      <trkpt lat="43.64528" lon="1.37891">
        <ele>148</ele>
        <time>2023-07-08T05:37:33Z</time>
      </trkpt>
      <trkpt lat="43.64523" lon="1.37887">
        <ele>148</ele>
        <time>2023-07-08T05:37:34Z</time>
      </trkpt>
      <trkpt lat="43.6452" lon="1.37885">
        <ele>148</ele>
        <time>2023-07-08T05:37:35Z</time>
      </trkpt>
      <trkpt lat="43.64517" lon="1.37883">
        <ele>147</ele>
        <time>2023-07-08T05:37:36Z</time>
      </trkpt>
      <trkpt lat="43.64514" lon="1.37882">
        <ele>147</ele>
        <time>2023-07-08T05:37:37Z</time>
      </trkpt>
      <trkpt lat="43.64514" lon="1.37882">
        <ele>147</ele>
        <time>2023-07-08T05:37:38Z</time>
      </trkpt>
      <trkpt lat="43.64511" lon="1.3788">
        <ele>147</ele>
        <time>2023-07-08T05:37:39Z</time>
      </trkpt>
      <trkpt lat="43.64508" lon="1.37878">
        <ele>147</ele>
        <time>2023-07-08T05:37:40Z</time>
      </trkpt>
      <trkpt lat="43.64502" lon="1.37874">
        <ele>147</ele>
        <time>2023-07-08T05:37:41Z</time>
      </trkpt>
      <trkpt lat="43.64499" lon="1.37872">
        <ele>147</ele>
        <time>2023-07-08T05:37:42Z</time>
      </trkpt>
      <trkpt lat="43.64496" lon="1.37871">
        <ele>147</ele>
        <time>2023-07-08T05:37:43Z</time>
      </trkpt>
      <trkpt lat="43.64494" lon="1.37869">
        <ele>147</ele>
        <time>2023-07-08T05:37:44Z</time>
      </trkpt>
      <trkpt lat="43.64494" lon="1.37869">
        <ele>146</ele>
        <time>2023-07-08T05:37:45Z</time>
      </trkpt>
      <trkpt lat="43.64489" lon="1.37867">
        <ele>146</ele>
        <time>2023-07-08T05:37:46Z</time>
      </trkpt>
      <trkpt lat="43.64489" lon="1.37867">
        <ele>147</ele>
        <time>2023-07-08T05:37:47Z</time>
      </trkpt>
      <trkpt lat="43.64486" lon="1.37867">
        <ele>147</ele>
        <time>2023-07-08T05:37:48Z</time>
      </trkpt>
      <trkpt lat="43.64483" lon="1.37867">
        <ele>147</ele>
        <time>2023-07-08T05:37:49Z</time>
      </trkpt>
      <trkpt lat="43.64479" lon="1.37869">
        <ele>148</ele>
        <time>2023-07-08T05:37:50Z</time>
      </trkpt>
      <trkpt lat="43.64473" lon="1.37873">
        <ele>148</ele>
        <time>2023-07-08T05:37:51Z</time>
      </trkpt>
      <trkpt lat="43.64471" lon="1.37876">
        <ele>148</ele>
        <time>2023-07-08T05:37:52Z</time>
      </trkpt>
      <trkpt lat="43.64471" lon="1.37876">
        <ele>147</ele>
        <time>2023-07-08T05:37:53Z</time>
      </trkpt>
      <trkpt lat="43.64468" lon="1.37879">
        <ele>147</ele>
        <time>2023-07-08T05:37:54Z</time>
      </trkpt>
      <trkpt lat="43.64466" lon="1.37882">
        <ele>147</ele>
        <time>2023-07-08T05:37:55Z</time>
      </trkpt>
      <trkpt lat="43.64465" lon="1.37886">
        <ele>147</ele>
        <time>2023-07-08T05:37:56Z</time>
      </trkpt>
      <trkpt lat="43.64462" lon="1.37893">
        <ele>147</ele>
        <time>2023-07-08T05:37:57Z</time>
      </trkpt>
      <trkpt lat="43.64461" lon="1.37898">
        <ele>147</ele>
        <time>2023-07-08T05:37:58Z</time>
      </trkpt>
      <trkpt lat="43.64461" lon="1.37898">
        <ele>147</ele>
        <time>2023-07-08T05:37:59Z</time>
      </trkpt>
      <trkpt lat="43.6446" lon="1.37907">
        <ele>147</ele>
        <time>2023-07-08T05:38:00Z</time>
      </trkpt>
      <trkpt lat="43.6446" lon="1.37907">
        <ele>147</ele>
        <time>2023-07-08T05:38:01Z</time>
      </trkpt>
      <trkpt lat="43.6446" lon="1.37917">
        <ele>147</ele>
        <time>2023-07-08T05:38:02Z</time>
      </trkpt>
      <trkpt lat="43.64461" lon="1.37922">
        <ele>147</ele>
        <time>2023-07-08T05:38:03Z</time>
      </trkpt>
      <trkpt lat="43.64462" lon="1.37926">
        <ele>147</ele>
        <time>2023-07-08T05:38:04Z</time>
      </trkpt>
      <trkpt lat="43.64464" lon="1.37929">
        <ele>147</ele>
        <time>2023-07-08T05:38:05Z</time>
      </trkpt>
      <trkpt lat="43.64464" lon="1.37929">
        <ele>147</ele>
        <time>2023-07-08T05:38:06Z</time>
      </trkpt>
      <trkpt lat="43.64468" lon="1.37937">
        <ele>147</ele>
        <time>2023-07-08T05:38:07Z</time>
      </trkpt>
      <trkpt lat="43.64468" lon="1.37937">
        <ele>147</ele>
        <time>2023-07-08T05:38:08Z</time>
      </trkpt>
      <trkpt lat="43.64473" lon="1.37942">
        <ele>147</ele>
        <time>2023-07-08T05:38:09Z</time>
      </trkpt>
      <trkpt lat="43.64475" lon="1.37944">
        <ele>147</ele>
        <time>2023-07-08T05:38:10Z</time>
      </trkpt>
      <trkpt lat="43.64475" lon="1.37944">
        <ele>148</ele>
        <time>2023-07-08T05:38:11Z</time>
      </trkpt>
      <trkpt lat="43.64478" lon="1.37946">
        <ele>148</ele>
        <time>2023-07-08T05:38:12Z</time>
      </trkpt>
      <trkpt lat="43.64484" lon="1.3795">
        <ele>148</ele>
        <time>2023-07-08T05:38:13Z</time>
      </trkpt>
      <trkpt lat="43.64487" lon="1.37951">
        <ele>148</ele>
        <time>2023-07-08T05:38:14Z</time>
      </trkpt>
      <trkpt lat="43.6449" lon="1.37952">
        <ele>148</ele>
        <time>2023-07-08T05:38:15Z</time>
      </trkpt>
      <trkpt lat="43.64493" lon="1.37953">
        <ele>148</ele>
        <time>2023-07-08T05:38:16Z</time>
      </trkpt>
      <trkpt lat="43.64493" lon="1.37953">
        <ele>148</ele>
        <time>2023-07-08T05:38:17Z</time>
      </trkpt>
      <trkpt lat="43.64499" lon="1.37956">
        <ele>147</ele>
        <time>2023-07-08T05:38:18Z</time>
      </trkpt>
      <trkpt lat="43.64499" lon="1.37956">
        <ele>147</ele>
        <time>2023-07-08T05:38:19Z</time>
      </trkpt>
      <trkpt lat="43.64502" lon="1.37957">
        <ele>148</ele>
        <time>2023-07-08T05:38:20Z</time>
      </trkpt>
      <trkpt lat="43.64508" lon="1.37961">
        <ele>148</ele>
        <time>2023-07-08T05:38:21Z</time>
      </trkpt>
      <trkpt lat="43.64508" lon="1.37961">
        <ele>148</ele>
        <time>2023-07-08T05:38:22Z</time>
      </trkpt>
      <trkpt lat="43.64514" lon="1.37964">
        <ele>148</ele>
        <time>2023-07-08T05:38:23Z</time>
      </trkpt>
      <trkpt lat="43.64517" lon="1.37965">
        <ele>148</ele>
        <time>2023-07-08T05:38:24Z</time>
      </trkpt>
      <trkpt lat="43.64517" lon="1.37965">
        <ele>148</ele>
        <time>2023-07-08T05:38:25Z</time>
      </trkpt>
      <trkpt lat="43.64523" lon="1.37969">
        <ele>148</ele>
        <time>2023-07-08T05:38:26Z</time>
      </trkpt>
      <trkpt lat="43.64526" lon="1.37971">
        <ele>148</ele>
        <time>2023-07-08T05:38:27Z</time>
      </trkpt>
      <trkpt lat="43.64526" lon="1.37971">
        <ele>148</ele>
        <time>2023-07-08T05:38:28Z</time>
      </trkpt>
      <trkpt lat="43.64532" lon="1.37974">
        <ele>148</ele>
        <time>2023-07-08T05:38:29Z</time>
      </trkpt>
      <trkpt lat="43.64536" lon="1.37975">
        <ele>148</ele>
        <time>2023-07-08T05:38:30Z</time>
      </trkpt>
      <trkpt lat="43.64539" lon="1.37976">
        <ele>148</ele>
        <time>2023-07-08T05:38:31Z</time>
      </trkpt>
      <trkpt lat="43.64539" lon="1.37976">
        <ele>148</ele>
        <time>2023-07-08T05:38:32Z</time>
      </trkpt>
      <trkpt lat="43.64542" lon="1.37976">
        <ele>148</ele>
        <time>2023-07-08T05:38:33Z</time>
      </trkpt>
      <trkpt lat="43.64545" lon="1.37976">
        <ele>148</ele>
        <time>2023-07-08T05:38:34Z</time>
      </trkpt>
      <trkpt lat="43.64548" lon="1.37976">
        <ele>147</ele>
        <time>2023-07-08T05:38:35Z</time>
      </trkpt>
      <trkpt lat="43.64553" lon="1.37973">
        <ele>147</ele>
        <time>2023-07-08T05:38:36Z</time>
      </trkpt>
      <trkpt lat="43.64553" lon="1.37973">
        <ele>147</ele>
        <time>2023-07-08T05:38:37Z</time>
      </trkpt>
      <trkpt lat="43.64556" lon="1.37971">
        <ele>148</ele>
        <time>2023-07-08T05:38:38Z</time>
      </trkpt>
      <trkpt lat="43.64561" lon="1.37966">
        <ele>148</ele>
        <time>2023-07-08T05:38:39Z</time>
      </trkpt>
      <trkpt lat="43.64564" lon="1.37964">
        <ele>148</ele>
        <time>2023-07-08T05:38:40Z</time>
      </trkpt>
      <trkpt lat="43.64566" lon="1.3796">
        <ele>148</ele>
        <time>2023-07-08T05:38:41Z</time>
      </trkpt>
      <trkpt lat="43.64568" lon="1.37957">
        <ele>148</ele>
        <time>2023-07-08T05:38:42Z</time>
      </trkpt>
      <trkpt lat="43.64568" lon="1.37957">
        <ele>148</ele>
        <time>2023-07-08T05:38:43Z</time>
      </trkpt>
      <trkpt lat="43.6457" lon="1.37954">
        <ele>148</ele>
        <time>2023-07-08T05:38:44Z</time>
      </trkpt>
      <trkpt lat="43.64571" lon="1.3795">
        <ele>148</ele>
        <time>2023-07-08T05:38:45Z</time>
      </trkpt>
      <trkpt lat="43.64572" lon="1.37945">
        <ele>148</ele>
        <time>2023-07-08T05:38:46Z</time>
      </trkpt>
      <trkpt lat="43.64572" lon="1.37941">
        <ele>148</ele>
        <time>2023-07-08T05:38:47Z</time>
      </trkpt>
      <trkpt lat="43.6457" lon="1.37932">
        <ele>148</ele>
        <time>2023-07-08T05:38:48Z</time>
      </trkpt>
      <trkpt lat="43.6457" lon="1.37932">
        <ele>148</ele>
        <time>2023-07-08T05:38:49Z</time>
      </trkpt>
      <trkpt lat="43.64566" lon="1.37923">
        <ele>148</ele>
        <time>2023-07-08T05:38:50Z</time>
      </trkpt>
      <trkpt lat="43.64563" lon="1.37919">
        <ele>148</ele>
        <time>2023-07-08T05:38:51Z</time>
      </trkpt>
      <trkpt lat="43.64563" lon="1.37919">
        <ele>148</ele>
        <time>2023-07-08T05:38:52Z</time>
      </trkpt>
      <trkpt lat="43.64556" lon="1.37911">
        <ele>148</ele>
        <time>2023-07-08T05:38:53Z</time>
      </trkpt>
      <trkpt lat="43.64553" lon="1.37908">
        <ele>148</ele>
        <time>2023-07-08T05:38:54Z</time>
      </trkpt>
      <trkpt lat="43.64553" lon="1.37908">
        <ele>148</ele>
        <time>2023-07-08T05:38:55Z</time>
      </trkpt>
      <trkpt lat="43.6455" lon="1.37905">
        <ele>148</ele>
        <time>2023-07-08T05:38:56Z</time>
      </trkpt>
      <trkpt lat="43.64547" lon="1.37903">
        <ele>148</ele>
        <time>2023-07-08T05:38:57Z</time>
      </trkpt>
      <trkpt lat="43.64541" lon="1.37898">
        <ele>148</ele>
        <time>2023-07-08T05:38:58Z</time>
      </trkpt>
      <trkpt lat="43.64537" lon="1.37897">
        <ele>148</ele>
        <time>2023-07-08T05:38:59Z</time>
      </trkpt>
      <trkpt lat="43.64534" lon="1.37895">
        <ele>148</ele>
        <time>2023-07-08T05:39:00Z</time>
      </trkpt>
      <trkpt lat="43.64534" lon="1.37895">
        <ele>148</ele>
        <time>2023-07-08T05:39:01Z</time>
      </trkpt>
      <trkpt lat="43.64531" lon="1.37893">
        <ele>148</ele>
        <time>2023-07-08T05:39:02Z</time>
      </trkpt>
      <trkpt lat="43.64528" lon="1.37892">
        <ele>148</ele>
        <time>2023-07-08T05:39:03Z</time>
      </trkpt>
      <trkpt lat="43.64522" lon="1.37888">
        <ele>148</ele>
        <time>2023-07-08T05:39:04Z</time>
      </trkpt>
      <trkpt lat="43.64519" lon="1.37885">
        <ele>148</ele>
        <time>2023-07-08T05:39:05Z</time>
      </trkpt>
      <trkpt lat="43.64516" lon="1.37883">
        <ele>148</ele>
        <time>2023-07-08T05:39:06Z</time>
      </trkpt>
      <trkpt lat="43.64516" lon="1.37883">
        <ele>148</ele>
        <time>2023-07-08T05:39:07Z</time>
      </trkpt>
      <trkpt lat="43.64513" lon="1.37881">
        <ele>148</ele>
        <time>2023-07-08T05:39:08Z</time>
      </trkpt>
      <trkpt lat="43.6451" lon="1.37878">
        <ele>148</ele>
        <time>2023-07-08T05:39:09Z</time>
      </trkpt>
      <trkpt lat="43.64507" lon="1.37876">
        <ele>148</ele>
        <time>2023-07-08T05:39:10Z</time>
      </trkpt>
      <trkpt lat="43.64501" lon="1.37873">
        <ele>147</ele>
        <time>2023-07-08T05:39:11Z</time>
      </trkpt>
      <trkpt lat="43.64498" lon="1.37872">
        <ele>147</ele>
        <time>2023-07-08T05:39:12Z</time>
      </trkpt>
      <trkpt lat="43.64498" lon="1.37872">
        <ele>147</ele>
        <time>2023-07-08T05:39:13Z</time>
      </trkpt>
      <trkpt lat="43.64492" lon="1.37869">
        <ele>147</ele>
        <time>2023-07-08T05:39:14Z</time>
      </trkpt>
      <trkpt lat="43.64489" lon="1.37868">
        <ele>147</ele>
        <time>2023-07-08T05:39:15Z</time>
      </trkpt>
      <trkpt lat="43.64489" lon="1.37868">
        <ele>147</ele>
        <time>2023-07-08T05:39:16Z</time>
      </trkpt>
      <trkpt lat="43.64486" lon="1.37868">
        <ele>148</ele>
        <time>2023-07-08T05:39:17Z</time>
      </trkpt>
      <trkpt lat="43.6448" lon="1.3787">
        <ele>148</ele>
        <time>2023-07-08T05:39:18Z</time>
      </trkpt>
      <trkpt lat="43.64477" lon="1.37871">
        <ele>148</ele>
        <time>2023-07-08T05:39:19Z</time>
      </trkpt>
      <trkpt lat="43.64474" lon="1.37873">
        <ele>148</ele>
        <time>2023-07-08T05:39:20Z</time>
      </trkpt>
      <trkpt lat="43.64471" lon="1.37875">
        <ele>148</ele>
        <time>2023-07-08T05:39:21Z</time>
      </trkpt>
      <trkpt lat="43.64471" lon="1.37875">
        <ele>148</ele>
        <time>2023-07-08T05:39:22Z</time>
      </trkpt>
      <trkpt lat="43.64468" lon="1.37881">
        <ele>148</ele>
        <time>2023-07-08T05:39:23Z</time>
      </trkpt>
      <trkpt lat="43.64468" lon="1.37881">
        <ele>148</ele>
        <time>2023-07-08T05:39:24Z</time>
      </trkpt>
      <trkpt lat="43.64466" lon="1.37884">
        <ele>148</ele>
        <time>2023-07-08T05:39:25Z</time>
      </trkpt>
      <trkpt lat="43.64464" lon="1.37892">
        <ele>148</ele>
        <time>2023-07-08T05:39:26Z</time>
      </trkpt>
      <trkpt lat="43.64464" lon="1.37892">
        <ele>147</ele>
        <time>2023-07-08T05:39:27Z</time>
      </trkpt>
      <trkpt lat="43.64463" lon="1.37897">
        <ele>147</ele>
        <time>2023-07-08T05:39:28Z</time>
      </trkpt>
      <trkpt lat="43.64461" lon="1.37902">
        <ele>147</ele>
        <time>2023-07-08T05:39:29Z</time>
      </trkpt>
      <trkpt lat="43.6446" lon="1.37907">
        <ele>147</ele>
        <time>2023-07-08T05:39:30Z</time>
      </trkpt>
      <trkpt lat="43.6446" lon="1.37912">
        <ele>147</ele>
        <time>2023-07-08T05:39:31Z</time>
      </trkpt>
      <trkpt lat="43.64461" lon="1.37921">
        <ele>147</ele>
        <time>2023-07-08T05:39:32Z</time>
      </trkpt>
      <trkpt lat="43.64461" lon="1.37921">
        <ele>148</ele>
        <time>2023-07-08T05:39:33Z</time>
      </trkpt>
      <trkpt lat="43.64462" lon="1.37926">
        <ele>148</ele>
        <time>2023-07-08T05:39:34Z</time>
      </trkpt>
      <trkpt lat="43.64463" lon="1.3793">
        <ele>147</ele>
        <time>2023-07-08T05:39:35Z</time>
      </trkpt>
      <trkpt lat="43.64464" lon="1.37933">
        <ele>147</ele>
        <time>2023-07-08T05:39:36Z</time>
      </trkpt>
      <trkpt lat="43.64469" lon="1.37939">
        <ele>147</ele>
        <time>2023-07-08T05:39:37Z</time>
      </trkpt>
      <trkpt lat="43.64469" lon="1.37939">
        <ele>148</ele>
        <time>2023-07-08T05:39:38Z</time>
      </trkpt>
      <trkpt lat="43.64472" lon="1.37942">
        <ele>148</ele>
        <time>2023-07-08T05:39:39Z</time>
      </trkpt>
      <trkpt lat="43.64475" lon="1.37944">
        <ele>148</ele>
        <time>2023-07-08T05:39:40Z</time>
      </trkpt>
      <trkpt lat="43.64478" lon="1.37946">
        <ele>148</ele>
        <time>2023-07-08T05:39:41Z</time>
      </trkpt>
      <trkpt lat="43.64482" lon="1.37948">
        <ele>148</ele>
        <time>2023-07-08T05:39:42Z</time>
      </trkpt>
      <trkpt lat="43.64489" lon="1.37952">
        <ele>148</ele>
        <time>2023-07-08T05:39:43Z</time>
      </trkpt>
      <trkpt lat="43.64489" lon="1.37952">
        <ele>148</ele>
        <time>2023-07-08T05:39:44Z</time>
      </trkpt>
      <trkpt lat="43.64495" lon="1.37956">
        <ele>148</ele>
        <time>2023-07-08T05:39:45Z</time>
      </trkpt>
      <trkpt lat="43.64495" lon="1.37956">
        <ele>148</ele>
        <time>2023-07-08T05:39:46Z</time>
      </trkpt>
      <trkpt lat="43.64498" lon="1.37958">
        <ele>148</ele>
        <time>2023-07-08T05:39:47Z</time>
      </trkpt>
      <trkpt lat="43.64501" lon="1.37959">
        <ele>148</ele>
        <time>2023-07-08T05:39:48Z</time>
      </trkpt>
      <trkpt lat="43.64508" lon="1.37963">
        <ele>148</ele>
        <time>2023-07-08T05:39:49Z</time>
      </trkpt>
      <trkpt lat="43.64508" lon="1.37963">
        <ele>147</ele>
        <time>2023-07-08T05:39:50Z</time>
      </trkpt>
      <trkpt lat="43.64514" lon="1.37966">
        <ele>147</ele>
        <time>2023-07-08T05:39:51Z</time>
      </trkpt>
      <trkpt lat="43.64517" lon="1.37968">
        <ele>147</ele>
        <time>2023-07-08T05:39:52Z</time>
      </trkpt>
      <trkpt lat="43.64517" lon="1.37968">
        <ele>147</ele>
        <time>2023-07-08T05:39:53Z</time>
      </trkpt>
      <trkpt lat="43.6452" lon="1.3797">
        <ele>147</ele>
        <time>2023-07-08T05:39:54Z</time>
      </trkpt>
      <trkpt lat="43.64523" lon="1.37972">
        <ele>147</ele>
        <time>2023-07-08T05:39:55Z</time>
      </trkpt>
      <trkpt lat="43.64529" lon="1.37976">
        <ele>147</ele>
        <time>2023-07-08T05:39:56Z</time>
      </trkpt>
      <trkpt lat="43.64532" lon="1.37978">
        <ele>148</ele>
        <time>2023-07-08T05:39:57Z</time>
      </trkpt>
      <trkpt lat="43.64532" lon="1.37978">
        <ele>148</ele>
        <time>2023-07-08T05:39:58Z</time>
      </trkpt>
      <trkpt lat="43.64536" lon="1.3798">
        <ele>148</ele>
        <time>2023-07-08T05:39:59Z</time>
      </trkpt>
      <trkpt lat="43.64539" lon="1.37981">
        <ele>148</ele>
        <time>2023-07-08T05:40:00Z</time>
      </trkpt>
      <trkpt lat="43.64546" lon="1.37981">
        <ele>148</ele>
        <time>2023-07-08T05:40:01Z</time>
      </trkpt>
      <trkpt lat="43.64546" lon="1.37981">
        <ele>148</ele>
        <time>2023-07-08T05:40:02Z</time>
      </trkpt>
      <trkpt lat="43.64549" lon="1.3798">
        <ele>147</ele>
        <time>2023-07-08T05:40:03Z</time>
      </trkpt>
      <trkpt lat="43.64552" lon="1.37979">
        <ele>147</ele>
        <time>2023-07-08T05:40:04Z</time>
      </trkpt>
      <trkpt lat="43.64555" lon="1.37978">
        <ele>147</ele>
        <time>2023-07-08T05:40:05Z</time>
      </trkpt>
      <trkpt lat="43.64557" lon="1.37975">
        <ele>147</ele>
        <time>2023-07-08T05:40:06Z</time>
      </trkpt>
      <trkpt lat="43.64562" lon="1.37969">
        <ele>147</ele>
        <time>2023-07-08T05:40:07Z</time>
      </trkpt>
      <trkpt lat="43.64564" lon="1.37966">
        <ele>147</ele>
        <time>2023-07-08T05:40:08Z</time>
      </trkpt>
      <trkpt lat="43.64564" lon="1.37966">
        <ele>147</ele>
        <time>2023-07-08T05:40:09Z</time>
      </trkpt>
      <trkpt lat="43.64568" lon="1.37958">
        <ele>147</ele>
        <time>2023-07-08T05:40:10Z</time>
      </trkpt>
      <trkpt lat="43.6457" lon="1.37954">
        <ele>147</ele>
        <time>2023-07-08T05:40:11Z</time>
      </trkpt>
      <trkpt lat="43.6457" lon="1.37954">
        <ele>147</ele>
        <time>2023-07-08T05:40:12Z</time>
      </trkpt>
      <trkpt lat="43.6457" lon="1.3795">
        <ele>148</ele>
        <time>2023-07-08T05:40:13Z</time>
      </trkpt>
      <trkpt lat="43.64571" lon="1.37941">
        <ele>148</ele>
        <time>2023-07-08T05:40:14Z</time>
      </trkpt>
      <trkpt lat="43.6457" lon="1.37936">
        <ele>148</ele>
        <time>2023-07-08T05:40:15Z</time>
      </trkpt>
      <trkpt lat="43.6457" lon="1.37936">
        <ele>148</ele>
        <time>2023-07-08T05:40:16Z</time>
      </trkpt>
      <trkpt lat="43.64569" lon="1.37932">
        <ele>148</ele>
        <time>2023-07-08T05:40:17Z</time>
      </trkpt>
      <trkpt lat="43.64565" lon="1.37923">
        <ele>147</ele>
        <time>2023-07-08T05:40:18Z</time>
      </trkpt>
      <trkpt lat="43.64565" lon="1.37923">
        <ele>148</ele>
        <time>2023-07-08T05:40:19Z</time>
      </trkpt>
      <trkpt lat="43.64563" lon="1.37919">
        <ele>148</ele>
        <time>2023-07-08T05:40:20Z</time>
      </trkpt>
      <trkpt lat="43.6456" lon="1.37915">
        <ele>148</ele>
        <time>2023-07-08T05:40:21Z</time>
      </trkpt>
      <trkpt lat="43.64557" lon="1.37911">
        <ele>148</ele>
        <time>2023-07-08T05:40:22Z</time>
      </trkpt>
      <trkpt lat="43.64551" lon="1.37906">
        <ele>147</ele>
        <time>2023-07-08T05:40:23Z</time>
      </trkpt>
      <trkpt lat="43.64548" lon="1.37904">
        <ele>147</ele>
        <time>2023-07-08T05:40:24Z</time>
      </trkpt>
      <trkpt lat="43.64545" lon="1.37901">
        <ele>147</ele>
        <time>2023-07-08T05:40:25Z</time>
      </trkpt>
      <trkpt lat="43.64545" lon="1.37901">
        <ele>147</ele>
        <time>2023-07-08T05:40:26Z</time>
      </trkpt>
      <trkpt lat="43.64542" lon="1.37899">
        <ele>147</ele>
        <time>2023-07-08T05:40:27Z</time>
      </trkpt>
      <trkpt lat="43.64539" lon="1.37896">
        <ele>147</ele>
        <time>2023-07-08T05:40:28Z</time>
      </trkpt>
      <trkpt lat="43.64532" lon="1.37892">
        <ele>147</ele>
        <time>2023-07-08T05:40:29Z</time>
      </trkpt>
      <trkpt lat="43.64528" lon="1.3789">
        <ele>147</ele>
        <time>2023-07-08T05:40:30Z</time>
      </trkpt>
      <trkpt lat="43.64528" lon="1.3789">
        <ele>147</ele>
        <time>2023-07-08T05:40:31Z</time>
      </trkpt>
      <trkpt lat="43.64525" lon="1.37888">
        <ele>147</ele>
        <time>2023-07-08T05:40:32Z</time>
      </trkpt>
      <trkpt lat="43.64518" lon="1.37884">
        <ele>148</ele>
        <time>2023-07-08T05:40:33Z</time>
      </trkpt>
      <trkpt lat="43.64515" lon="1.37882">
        <ele>148</ele>
        <time>2023-07-08T05:40:34Z</time>
      </trkpt>
      <trkpt lat="43.64515" lon="1.37882">
        <ele>148</ele>
        <time>2023-07-08T05:40:35Z</time>
      </trkpt>
      <trkpt lat="43.64511" lon="1.37879">
        <ele>148</ele>
        <time>2023-07-08T05:40:36Z</time>
      </trkpt>
      <trkpt lat="43.64505" lon="1.37876">
        <ele>148</ele>
        <time>2023-07-08T05:40:37Z</time>
      </trkpt>
      <trkpt lat="43.64505" lon="1.37876">
        <ele>147</ele>
        <time>2023-07-08T05:40:38Z</time>
      </trkpt>
      <trkpt lat="43.64499" lon="1.37873">
        <ele>147</ele>
        <time>2023-07-08T05:40:39Z</time>
      </trkpt>
      <trkpt lat="43.64499" lon="1.37873">
        <ele>147</ele>
        <time>2023-07-08T05:40:40Z</time>
      </trkpt>
      <trkpt lat="43.64495" lon="1.37872">
        <ele>147</ele>
        <time>2023-07-08T05:40:41Z</time>
      </trkpt>
      <trkpt lat="43.64492" lon="1.37871">
        <ele>147</ele>
        <time>2023-07-08T05:40:42Z</time>
      </trkpt>
      <trkpt lat="43.6449" lon="1.3787">
        <ele>147</ele>
        <time>2023-07-08T05:40:43Z</time>
      </trkpt>
      <trkpt lat="43.64483" lon="1.37869">
        <ele>147</ele>
        <time>2023-07-08T05:40:44Z</time>
      </trkpt>
      <trkpt lat="43.64483" lon="1.37869">
        <ele>147</ele>
        <time>2023-07-08T05:40:45Z</time>
      </trkpt>
      <trkpt lat="43.6448" lon="1.3787">
        <ele>147</ele>
        <time>2023-07-08T05:40:46Z</time>
      </trkpt>
      <trkpt lat="43.64477" lon="1.37872">
        <ele>147</ele>
        <time>2023-07-08T05:40:47Z</time>
      </trkpt>
      <trkpt lat="43.64474" lon="1.37873">
        <ele>147</ele>
        <time>2023-07-08T05:40:48Z</time>
      </trkpt>
      <trkpt lat="43.64468" lon="1.37879">
        <ele>147</ele>
        <time>2023-07-08T05:40:49Z</time>
      </trkpt>
      <trkpt lat="43.64468" lon="1.37879">
        <ele>147</ele>
        <time>2023-07-08T05:40:50Z</time>
      </trkpt>
      <trkpt lat="43.64465" lon="1.37882">
        <ele>148</ele>
        <time>2023-07-08T05:40:51Z</time>
      </trkpt>
    </trkseg>
  </trk>
</gpx>